Time,TemperatureF,DewpointF,PressureIn,WindDirection,WindDirectionDegrees,WindSpeedMPH,WindSpeedGustMPH,Humidity,HourlyPrecipIn,Conditions,Clouds,dailyrainin,SoftwareType,DateUTC
2013-02-13 00:02:00,35.3,25.0,29.82,South,180,6.3,13.4,66,0.00,,,0.00,WUHU216HW,2013-02-13 07:02:00,
2013-02-13 00:03:00,35.3,24.7,29.81,SSW,203,7.2,13.4,65,0.00,,,0.00,WUHU216HW,2013-02-13 07:03:00,
2013-02-13 00:05:00,35.3,24.7,29.80,South,180,11.4,15.2,65,0.00,,,0.00,WUHU216HW,2013-02-13 07:05:00,
2013-02-13 00:07:00,35.3,25.0,29.80,SSE,158,7.8,15.2,66,0.00,,,0.00,WUHU216HW,2013-02-13 07:07:00,
2013-02-13 00:08:00,35.3,25.0,29.80,SSE,158,7.6,15.2,66,0.00,,,0.00,WUHU216HW,2013-02-13 07:08:00,
2013-02-13 00:10:00,35.3,25.0,29.81,SSE,158,7.4,15.2,66,0.00,,,0.00,WUHU216HW,2013-02-13 07:10:00,
2013-02-13 00:12:00,35.3,25.0,29.81,SSE,158,9.2,15.2,66,0.00,,,0.00,WUHU216HW,2013-02-13 07:12:00,
2013-02-13 00:13:00,35.3,25.0,29.81,SSE,158,9.2,15.2,66,0.00,,,0.00,WUHU216HW,2013-02-13 07:13:00,
2013-02-13 00:16:00,35.5,24.8,29.81,South,180,1.3,9.2,65,0.00,,,0.00,WUHU216HW,2013-02-13 07:16:00,
2013-02-13 00:18:00,35.6,25.0,29.81,SE,135,2.9,9.2,65,0.00,,,0.00,WUHU216HW,2013-02-13 07:18:00,
2013-02-13 00:21:00,35.8,24.5,29.81,NNE,23,1.1,9.2,63,0.00,,,0.00,WUHU216HW,2013-02-13 07:21:00,
2013-02-13 00:23:00,36.2,24.9,29.81,NE,45,1.3,9.2,63,0.00,,,0.00,WUHU216HW,2013-02-13 07:23:00,
2013-02-13 00:26:00,36.5,24.4,29.81,NW,315,4.7,12.8,61,0.00,,,0.00,WUHU216HW,2013-02-13 07:26:00,
2013-02-13 00:28:00,37.1,24.5,29.81,NNW,338,4.3,12.8,60,0.00,,,0.00,WUHU216HW,2013-02-13 07:28:00,
2013-02-13 00:31:00,37.4,24.8,29.81,NNE,23,5.4,12.8,60,0.00,,,0.00,WUHU216HW,2013-02-13 07:31:00,
2013-02-13 00:33:00,37.4,24.8,29.81,NNW,338,2.9,12.8,60,0.00,,,0.00,WUHU216HW,2013-02-13 07:33:00,
2013-02-13 00:36:00,37.6,25.0,29.81,NNE,23,13.6,13.6,60,0.00,,,0.00,WUHU216HW,2013-02-13 07:36:00,
2013-02-13 00:38:00,37.4,24.8,29.81,ENE,68,5.8,13.9,60,0.00,,,0.00,WUHU216HW,2013-02-13 07:38:00,
2013-02-13 00:41:00,37.3,24.7,29.81,North,0,9.8,13.9,60,0.00,,,0.00,WUHU216HW,2013-02-13 07:41:00,
2013-02-13 00:43:00,37.4,24.8,29.80,ENE,68,6.9,13.9,60,0.00,,,0.00,WUHU216HW,2013-02-13 07:43:00,
2013-02-13 00:44:00,37.4,24.8,29.80,ENE,68,8.3,13.9,60,0.00,,,0.00,WUHU216HW,2013-02-13 07:44:00,
2013-02-13 00:46:00,37.4,24.8,29.80,NNE,23,6.3,13.9,60,0.00,,,0.00,WUHU216HW,2013-02-13 07:46:00,
2013-02-13 00:48:00,37.3,24.7,29.80,NE,45,5.1,9.8,60,0.00,,,0.00,WUHU216HW,2013-02-13 07:48:00,
2013-02-13 00:49:00,37.3,25.0,29.80,NE,45,5.4,9.8,61,0.00,,,0.00,WUHU216HW,2013-02-13 07:49:00,
2013-02-13 00:51:00,37.3,24.7,29.80,NE,45,6.9,8.5,60,0.00,,,0.00,WUHU216HW,2013-02-13 07:51:00,
2013-02-13 00:53:00,37.3,24.7,29.79,ENE,68,9.2,9.2,60,0.00,,,0.00,WUHU216HW,2013-02-13 07:53:00,
2013-02-13 00:54:00,37.4,24.8,29.79,ENE,68,10.5,10.5,60,0.00,,,0.00,WUHU216HW,2013-02-13 07:54:00,
2013-02-13 00:57:00,37.1,25.3,29.79,ESE,113,11.4,11.4,62,0.00,,,0.00,WUHU216HW,2013-02-13 07:57:00,
2013-02-13 00:58:00,36.9,25.1,29.79,ESE,113,10.5,11.9,62,0.00,,,0.00,WUHU216HW,2013-02-13 07:58:00,
2013-02-13 00:59:00,36.7,24.9,29.80,East,90,9.8,11.9,62,0.00,,,0.00,WUHU216HW,2013-02-13 07:59:00,
2013-02-13 01:02:00,35.8,25.2,29.80,ESE,113,13.9,14.1,65,0.00,,,0.00,WUHU216HW,2013-02-13 08:02:00,
2013-02-13 01:03:00,35.6,25.0,29.80,ESE,113,11.0,14.1,65,0.00,,,0.00,WUHU216HW,2013-02-13 08:03:00,
2013-02-13 01:04:00,35.5,24.8,29.80,ESE,113,11.9,14.1,65,0.00,,,0.00,WUHU216HW,2013-02-13 08:04:00,
2013-02-13 01:07:00,34.9,24.7,29.80,SE,135,9.8,14.1,66,0.00,,,0.00,WUHU216HW,2013-02-13 08:07:00,
2013-02-13 01:09:00,34.9,25.0,29.80,SE,135,10.7,14.1,67,0.00,,,0.00,WUHU216HW,2013-02-13 08:09:00,
2013-02-13 01:12:00,34.6,24.7,29.80,SSE,158,6.7,14.1,67,0.00,,,0.00,WUHU216HW,2013-02-13 08:12:00,
2013-02-13 01:14:00,34.4,24.5,29.81,SE,135,5.4,12.3,67,0.00,,,0.00,WUHU216HW,2013-02-13 08:14:00,
2013-02-13 01:15:00,34.4,24.5,29.81,SE,135,5.4,12.3,67,0.00,,,0.00,WUHU216HW,2013-02-13 08:15:00,
2013-02-13 01:17:00,34.2,24.7,29.80,SSE,158,5.4,12.1,68,0.00,,,0.00,WUHU216HW,2013-02-13 08:17:00,
2013-02-13 01:19:00,34.2,24.7,29.80,SSE,158,5.8,8.5,68,0.00,,,0.00,WUHU216HW,2013-02-13 08:19:00,
2013-02-13 01:20:00,34.2,25.0,29.80,South,180,7.2,8.5,69,0.00,,,0.00,WUHU216HW,2013-02-13 08:20:00,
2013-02-13 01:23:00,33.8,24.7,29.80,South,180,6.3,8.5,69,0.00,,,0.00,WUHU216HW,2013-02-13 08:23:00,
2013-02-13 01:24:00,33.8,24.7,29.80,SSW,203,6.3,8.5,69,0.00,,,0.00,WUHU216HW,2013-02-13 08:24:00,
2013-02-13 01:25:00,33.7,24.5,29.80,South,180,6.3,8.5,69,0.00,,,0.00,WUHU216HW,2013-02-13 08:25:00,
2013-02-13 01:28:00,33.5,24.3,29.80,SSW,203,6.3,7.6,69,0.00,,,0.00,WUHU216HW,2013-02-13 08:28:00,
2013-02-13 01:29:00,33.5,24.7,29.81,SSE,158,7.6,8.3,70,0.00,,,0.00,WUHU216HW,2013-02-13 08:29:00,
2013-02-13 01:30:00,33.5,24.7,29.81,SSW,203,8.5,8.5,70,0.00,,,0.00,WUHU216HW,2013-02-13 08:30:00,
2013-02-13 01:33:00,33.5,24.7,29.80,SE,135,15.4,15.7,70,0.00,,,0.00,WUHU216HW,2013-02-13 08:33:00,
2013-02-13 01:34:00,33.5,24.7,29.80,SE,135,11.0,15.7,70,0.00,,,0.00,WUHU216HW,2013-02-13 08:34:00,
2013-02-13 01:35:00,33.7,24.8,29.80,SE,135,11.0,15.7,70,0.00,,,0.00,WUHU216HW,2013-02-13 08:35:00,
2013-02-13 01:38:00,33.8,25.0,29.80,SE,135,8.5,15.7,70,0.00,,,0.00,WUHU216HW,2013-02-13 08:38:00,
2013-02-13 01:40:00,34.0,24.8,29.80,SW,225,5.8,15.7,69,0.00,,,0.00,WUHU216HW,2013-02-13 08:40:00,
2013-02-13 01:43:00,34.0,25.2,29.81,WSW,248,5.4,12.5,70,0.00,,,0.00,WUHU216HW,2013-02-13 08:43:00,
2013-02-13 01:45:00,34.0,25.2,29.80,SSE,158,4.3,12.5,70,0.00,,,0.00,WUHU216HW,2013-02-13 08:45:00,
2013-02-13 01:48:00,34.0,24.8,29.79,SE,135,5.1,12.5,69,0.00,,,0.00,WUHU216HW,2013-02-13 08:48:00,
2013-02-13 01:50:00,34.2,25.0,29.80,South,180,2.0,12.5,69,0.00,,,0.00,WUHU216HW,2013-02-13 08:50:00,
2013-02-13 01:51:00,34.2,25.0,29.80,SW,225,1.8,12.5,69,0.00,,,0.00,WUHU216HW,2013-02-13 08:51:00,
2013-02-13 01:53:00,34.4,25.2,29.80,NNW,338,3.4,7.6,69,0.00,,,0.00,WUHU216HW,2013-02-13 08:53:00,
2013-02-13 01:55:00,34.6,24.7,29.79,East,90,1.8,7.6,67,0.00,,,0.00,WUHU216HW,2013-02-13 08:55:00,
2013-02-13 01:56:00,34.6,24.7,29.80,East,90,1.6,7.6,67,0.00,,,0.00,WUHU216HW,2013-02-13 08:56:00,
2013-02-13 01:58:00,34.9,25.0,29.79,ENE,68,2.7,5.4,67,0.00,,,0.00,WUHU216HW,2013-02-13 08:58:00,
2013-02-13 02:01:00,35.1,24.8,29.79,NNW,338,6.3,6.9,66,0.00,,,0.00,WUHU216HW,2013-02-13 09:01:00,
2013-02-13 02:03:00,36.4,24.9,29.79,NNW,338,13.2,14.1,63,0.00,,,0.00,WUHU216HW,2013-02-13 09:03:00,
2013-02-13 02:06:00,37.1,24.9,29.79,NNW,338,7.2,14.3,61,0.00,,,0.00,WUHU216HW,2013-02-13 09:06:00,
2013-02-13 02:08:00,37.3,24.7,29.79,North,0,7.4,14.3,60,0.00,,,0.00,WUHU216HW,2013-02-13 09:08:00,
2013-02-13 02:11:00,37.4,24.8,29.79,ESE,113,6.0,14.3,60,0.00,,,0.00,WUHU216HW,2013-02-13 09:11:00,
2013-02-13 02:13:00,37.3,25.0,29.79,East,90,3.4,14.3,61,0.00,,,0.00,WUHU216HW,2013-02-13 09:13:00,
2013-02-13 02:16:00,37.1,24.9,29.78,East,90,6.9,10.3,61,0.00,,,0.00,WUHU216HW,2013-02-13 09:16:00,
2013-02-13 02:18:00,36.9,25.1,29.78,SW,225,4.7,7.6,62,0.00,,,0.00,WUHU216HW,2013-02-13 09:18:00,
2013-02-13 02:21:00,37.1,24.5,29.78,North,0,4.0,7.6,60,0.00,,,0.00,WUHU216HW,2013-02-13 09:21:00,
2013-02-13 02:22:00,37.1,24.5,29.78,North,0,5.8,7.6,60,0.00,,,0.00,WUHU216HW,2013-02-13 09:22:00,
2013-02-13 02:23:00,37.6,25.0,29.78,North,0,7.8,9.2,60,0.00,,,0.00,WUHU216HW,2013-02-13 09:23:00,
2013-02-13 02:27:00,38.2,25.0,29.78,NW,315,5.4,17.7,59,0.00,,,0.00,WUHU216HW,2013-02-13 09:27:00,
2013-02-13 02:29:00,38.3,24.8,29.78,NNW,338,5.8,17.7,58,0.00,,,0.00,WUHU216HW,2013-02-13 09:29:00,
2013-02-13 02:32:00,38.5,24.9,29.78,WNW,293,11.9,17.7,58,0.00,,,0.00,WUHU216HW,2013-02-13 09:32:00,
2013-02-13 02:34:00,38.5,24.9,29.78,WNW,293,8.5,17.7,58,0.00,,,0.00,WUHU216HW,2013-02-13 09:34:00,
2013-02-13 02:37:00,38.5,24.9,29.78,NW,315,14.3,17.0,58,0.00,,,0.00,WUHU216HW,2013-02-13 09:37:00,
2013-02-13 02:39:00,38.5,24.9,29.77,West,270,12.8,17.0,58,0.00,,,0.00,WUHU216HW,2013-02-13 09:39:00,
2013-02-13 02:42:00,38.7,24.7,29.77,WNW,293,17.2,25.1,57,0.00,,,0.00,WUHU216HW,2013-02-13 09:42:00,
2013-02-13 02:45:00,39.1,24.6,29.77,West,270,14.8,26.6,56,0.00,,,0.00,WUHU216HW,2013-02-13 09:45:00,
2013-02-13 02:47:00,39.1,25.0,29.77,NW,315,14.3,26.6,57,0.00,,,0.00,WUHU216HW,2013-02-13 09:47:00,
2013-02-13 02:48:00,39.1,24.6,29.77,West,270,17.7,26.6,56,0.00,,,0.00,WUHU216HW,2013-02-13 09:48:00,
2013-02-13 02:50:00,39.2,24.8,29.77,WNW,293,14.1,26.6,56,0.00,,,0.00,WUHU216HW,2013-02-13 09:50:00,
2013-02-13 02:52:00,39.2,24.8,29.77,West,270,12.5,26.6,56,0.00,,,0.00,WUHU216HW,2013-02-13 09:52:00,
2013-02-13 02:53:00,39.2,24.8,29.77,West,270,14.5,26.6,56,0.00,,,0.00,WUHU216HW,2013-02-13 09:53:00,
2013-02-13 02:55:00,39.2,24.3,29.77,West,270,21.5,22.6,55,0.00,,,0.00,WUHU216HW,2013-02-13 09:55:00,
2013-02-13 02:57:00,39.4,24.9,29.77,SW,225,10.3,22.6,56,0.00,,,0.00,WUHU216HW,2013-02-13 09:57:00,
2013-02-13 02:58:00,39.4,24.9,29.77,SW,225,10.3,22.6,56,0.00,,,0.00,WUHU216HW,2013-02-13 09:58:00,
2013-02-13 03:00:00,39.2,24.3,29.77,WNW,293,19.2,22.6,55,0.00,,,0.00,WUHU216HW,2013-02-13 10:00:00,
2013-02-13 03:02:00,39.6,24.2,29.78,West,270,23.9,32.4,54,0.00,,,0.00,WUHU216HW,2013-02-13 10:02:00,
2013-02-13 03:03:00,39.6,24.2,29.78,West,270,23.9,32.4,54,0.00,,,0.00,WUHU216HW,2013-02-13 10:03:00,
2013-02-13 03:05:00,39.8,24.4,29.78,West,270,17.7,32.4,54,0.00,,,0.00,WUHU216HW,2013-02-13 10:05:00,
2013-02-13 03:08:00,40.0,24.6,29.77,WSW,248,19.7,32.4,54,0.00,,,0.00,WUHU216HW,2013-02-13 10:08:00,
2013-02-13 03:09:00,40.0,25.0,29.78,WSW,248,17.2,32.4,55,0.00,,,0.00,WUHU216HW,2013-02-13 10:09:00,
2013-02-13 03:10:00,39.8,24.4,29.78,West,270,18.1,32.4,54,0.00,,,0.00,WUHU216HW,2013-02-13 10:10:00,
2013-02-13 03:13:00,40.0,25.0,29.77,WSW,248,11.2,25.7,55,0.00,,,0.00,WUHU216HW,2013-02-13 10:13:00,
2013-02-13 03:14:00,39.8,24.4,29.77,WSW,248,20.8,25.3,54,0.00,,,0.00,WUHU216HW,2013-02-13 10:14:00,
2013-02-13 03:15:00,39.8,24.4,29.77,WSW,248,21.7,25.3,54,0.00,,,0.00,WUHU216HW,2013-02-13 10:15:00,
2013-02-13 03:18:00,40.0,24.6,29.77,WNW,293,20.4,22.4,54,0.00,,,0.00,WUHU216HW,2013-02-13 10:18:00,
2013-02-13 03:19:00,40.0,24.6,29.77,WNW,293,13.2,22.4,54,0.00,,,0.00,WUHU216HW,2013-02-13 10:19:00,
2013-02-13 03:20:00,40.0,24.1,29.77,WSW,248,21.0,22.4,53,0.00,,,0.00,WUHU216HW,2013-02-13 10:20:00,
2013-02-13 03:23:00,40.1,24.3,29.77,WSW,248,21.9,28.9,53,0.00,,,0.00,WUHU216HW,2013-02-13 10:23:00,
2013-02-13 03:24:00,40.1,24.3,29.77,WSW,248,6.3,28.9,53,0.00,,,0.00,WUHU216HW,2013-02-13 10:24:00,
2013-02-13 03:25:00,40.3,24.0,29.78,West,270,17.9,28.9,52,0.00,,,0.00,WUHU216HW,2013-02-13 10:25:00,
2013-02-13 03:28:00,40.5,24.1,29.77,WSW,248,15.0,28.9,52,0.00,,,0.00,WUHU216HW,2013-02-13 10:28:00,
2013-02-13 03:29:00,40.3,24.0,29.77,WSW,248,7.8,28.9,52,0.00,,,0.00,WUHU216HW,2013-02-13 10:29:00,
2013-02-13 03:31:00,40.3,23.6,29.77,NW,315,11.0,28.9,51,0.00,,,0.00,WUHU216HW,2013-02-13 10:31:00,
2013-02-13 03:33:00,40.7,23.0,29.77,West,270,14.1,20.8,49,0.00,,,0.00,WUHU216HW,2013-02-13 10:33:00,
2013-02-13 03:34:00,40.7,23.4,29.77,WSW,248,17.9,20.8,50,0.00,,,0.00,WUHU216HW,2013-02-13 10:34:00,
2013-02-13 03:36:00,41.0,23.8,29.77,WSW,248,13.0,20.8,50,0.00,,,0.00,WUHU216HW,2013-02-13 10:36:00,
2013-02-13 03:38:00,40.9,23.6,29.77,WSW,248,9.8,20.8,50,0.00,,,0.00,WUHU216HW,2013-02-13 10:38:00,
2013-02-13 03:39:00,40.9,23.6,29.77,WSW,248,11.9,20.8,50,0.00,,,0.00,WUHU216HW,2013-02-13 10:39:00,
2013-02-13 03:41:00,40.7,23.4,29.77,WNW,293,11.4,20.8,50,0.00,,,0.00,WUHU216HW,2013-02-13 10:41:00,
2013-02-13 03:43:00,40.7,24.3,29.77,SW,225,2.2,18.6,52,0.00,,,0.00,WUHU216HW,2013-02-13 10:43:00,
2013-02-13 03:44:00,40.7,23.9,29.77,WNW,293,10.7,18.6,51,0.00,,,0.00,WUHU216HW,2013-02-13 10:44:00,
2013-02-13 03:46:00,40.5,23.8,29.77,NW,315,10.5,17.4,51,0.00,,,0.00,WUHU216HW,2013-02-13 10:46:00,
2013-02-13 03:48:00,40.5,24.1,29.77,West,270,7.6,17.4,52,0.00,,,0.00,WUHU216HW,2013-02-13 10:48:00,
2013-02-13 03:49:00,40.5,24.1,29.77,WSW,248,6.9,17.4,52,0.00,,,0.00,WUHU216HW,2013-02-13 10:49:00,
2013-02-13 03:52:00,40.5,24.1,29.77,NNW,338,11.4,14.5,52,0.00,,,0.00,WUHU216HW,2013-02-13 10:52:00,
2013-02-13 03:53:00,40.3,24.0,29.77,West,270,11.9,14.5,52,0.00,,,0.00,WUHU216HW,2013-02-13 10:53:00,
2013-02-13 03:54:00,40.3,24.0,29.77,NW,315,17.7,18.6,52,0.00,,,0.00,WUHU216HW,2013-02-13 10:54:00,
2013-02-13 03:57:00,40.3,24.0,29.77,WNW,293,10.3,18.6,52,0.00,,,0.00,WUHU216HW,2013-02-13 10:57:00,
2013-02-13 03:59:00,40.1,24.3,29.77,NW,315,7.6,18.6,53,0.00,,,0.00,WUHU216HW,2013-02-13 10:59:00,
2013-02-13 04:00:00,40.1,24.3,29.77,NW,315,8.7,18.6,53,0.00,,,0.00,WUHU216HW,2013-02-13 11:00:00,
2013-02-13 04:03:00,40.1,23.9,29.77,West,270,15.7,18.6,52,0.00,,,0.00,WUHU216HW,2013-02-13 11:03:00,
2013-02-13 04:04:00,40.1,24.3,29.77,NW,315,11.0,18.6,53,0.00,,,0.00,WUHU216HW,2013-02-13 11:04:00,
2013-02-13 04:05:00,40.1,24.3,29.77,NW,315,8.3,15.9,53,0.00,,,0.00,WUHU216HW,2013-02-13 11:05:00,
2013-02-13 04:08:00,40.0,24.6,29.77,NNW,338,5.6,15.9,54,0.00,,,0.00,WUHU216HW,2013-02-13 11:08:00,
2013-02-13 04:09:00,40.0,24.1,29.77,NNW,338,12.5,15.9,53,0.00,,,0.00,WUHU216HW,2013-02-13 11:09:00,
2013-02-13 04:10:00,40.0,24.1,29.77,West,270,9.2,15.9,53,0.00,,,0.00,WUHU216HW,2013-02-13 11:10:00,
2013-02-13 04:11:00,40.0,24.1,29.77,West,270,6.7,15.9,53,0.00,,,0.00,WUHU216HW,2013-02-13 11:11:00,
2013-02-13 04:13:00,40.1,24.3,29.77,West,270,11.9,13.6,53,0.00,,,0.00,WUHU216HW,2013-02-13 11:13:00,
2013-02-13 04:14:00,40.1,24.3,29.77,NW,315,10.7,13.6,53,0.00,,,0.00,WUHU216HW,2013-02-13 11:14:00,
2013-02-13 04:15:00,40.1,24.3,29.76,West,270,5.4,13.6,53,0.00,,,0.00,WUHU216HW,2013-02-13 11:15:00,
2013-02-13 04:16:00,40.1,24.3,29.76,West,270,12.1,13.6,53,0.00,,,0.00,WUHU216HW,2013-02-13 11:16:00,
2013-02-13 04:18:00,40.0,23.7,29.76,WNW,293,11.0,14.1,52,0.00,,,0.00,WUHU216HW,2013-02-13 11:18:00,
2013-02-13 04:20:00,40.1,24.3,29.76,West,270,23.7,23.7,53,0.00,,,0.00,WUHU216HW,2013-02-13 11:20:00,
2013-02-13 04:21:00,40.1,24.3,29.76,West,270,21.7,23.9,53,0.00,,,0.00,WUHU216HW,2013-02-13 11:21:00,
2013-02-13 04:23:00,40.5,24.6,29.76,West,270,23.7,29.3,53,0.00,,,0.00,WUHU216HW,2013-02-13 11:23:00,
2013-02-13 04:25:00,40.5,24.1,29.75,West,270,21.7,29.3,52,0.00,,,0.00,WUHU216HW,2013-02-13 11:25:00,
2013-02-13 04:26:00,40.5,24.1,29.75,West,270,31.1,31.1,52,0.00,,,0.00,WUHU216HW,2013-02-13 11:26:00,
2013-02-13 04:29:00,40.5,24.1,29.75,West,270,22.4,31.1,52,0.00,,,0.00,WUHU216HW,2013-02-13 11:29:00,
2013-02-13 04:30:00,40.5,24.1,29.75,WNW,293,23.7,31.1,52,0.00,,,0.00,WUHU216HW,2013-02-13 11:30:00,
2013-02-13 04:31:00,40.7,24.3,29.75,WNW,293,25.1,31.1,52,0.00,,,0.00,WUHU216HW,2013-02-13 11:31:00,
2013-02-13 04:34:00,40.5,24.1,29.75,West,270,23.3,31.1,52,0.00,,,0.00,WUHU216HW,2013-02-13 11:34:00,
2013-02-13 04:35:00,40.7,24.3,29.75,WNW,293,23.0,31.1,52,0.00,,,0.00,WUHU216HW,2013-02-13 11:35:00,
2013-02-13 04:36:00,40.7,24.3,29.75,WNW,293,16.8,31.1,52,0.00,,,0.00,WUHU216HW,2013-02-13 11:36:00,
2013-02-13 04:39:00,40.7,24.3,29.75,WNW,293,15.4,30.2,52,0.00,,,0.00,WUHU216HW,2013-02-13 11:39:00,
2013-02-13 04:41:00,40.7,24.3,29.75,WNW,293,23.7,30.2,52,0.00,,,0.00,WUHU216HW,2013-02-13 11:41:00,
2013-02-13 04:42:00,40.7,24.3,29.75,NW,315,27.1,28.9,52,0.00,,,0.00,WUHU216HW,2013-02-13 11:42:00,
2013-02-13 04:44:00,40.5,24.1,29.75,West,270,17.7,30.9,52,0.00,,,0.00,WUHU216HW,2013-02-13 11:44:00,
2013-02-13 04:46:00,40.5,24.1,29.75,WSW,248,16.3,30.9,52,0.00,,,0.00,WUHU216HW,2013-02-13 11:46:00,
2013-02-13 04:47:00,40.5,24.1,29.74,NW,315,22.4,31.1,52,0.00,,,0.00,WUHU216HW,2013-02-13 11:47:00,
2013-02-13 04:49:00,40.5,24.1,29.74,West,270,26.6,31.1,52,0.00,,,0.00,WUHU216HW,2013-02-13 11:49:00,
2013-02-13 04:51:00,40.5,24.1,29.74,WNW,293,28.2,31.1,52,0.00,,,0.00,WUHU216HW,2013-02-13 11:51:00,
2013-02-13 04:52:00,40.5,24.1,29.74,West,270,30.6,31.1,52,0.00,,,0.00,WUHU216HW,2013-02-13 11:52:00,
2013-02-13 04:54:00,40.5,24.1,29.73,West,270,25.9,31.1,52,0.00,,,0.00,WUHU216HW,2013-02-13 11:54:00,
2013-02-13 04:56:00,40.5,24.1,29.73,WNW,293,27.3,31.1,52,0.00,,,0.00,WUHU216HW,2013-02-13 11:56:00,
2013-02-13 04:57:00,40.5,24.1,29.74,WNW,293,31.5,31.5,52,0.00,,,0.00,WUHU216HW,2013-02-13 11:57:00,
2013-02-13 04:59:00,40.7,24.3,29.73,West,270,31.8,34.7,52,0.00,,,0.00,WUHU216HW,2013-02-13 11:59:00,
2013-02-13 05:01:00,40.7,24.3,29.73,WNW,293,28.9,34.7,52,0.00,,,0.00,WUHU216HW,2013-02-13 12:01:00,
2013-02-13 05:02:00,40.7,24.3,29.73,WNW,293,25.7,34.7,52,0.00,,,0.00,WUHU216HW,2013-02-13 12:02:00,
2013-02-13 05:05:00,40.7,24.3,29.73,WNW,293,25.3,34.7,52,0.00,,,0.00,WUHU216HW,2013-02-13 12:05:00,
2013-02-13 05:06:00,40.7,23.9,29.73,WNW,293,36.9,36.9,51,0.00,,,0.00,WUHU216HW,2013-02-13 12:06:00,
2013-02-13 05:08:00,40.7,24.3,29.73,WNW,293,18.3,36.9,52,0.00,,,0.00,WUHU216HW,2013-02-13 12:08:00,
2013-02-13 05:10:00,40.5,24.1,29.73,WNW,293,24.4,36.9,52,0.00,,,0.00,WUHU216HW,2013-02-13 12:10:00,
2013-02-13 05:11:00,40.7,24.3,29.73,West,270,28.2,36.9,52,0.00,,,0.00,WUHU216HW,2013-02-13 12:11:00,
2013-02-13 05:13:00,40.7,23.9,29.73,WNW,293,26.8,36.9,51,0.00,,,0.00,WUHU216HW,2013-02-13 12:13:00,
2013-02-13 05:15:00,40.7,23.9,29.73,WNW,293,26.4,36.9,51,0.00,,,0.00,WUHU216HW,2013-02-13 12:15:00,
2013-02-13 05:16:00,40.7,23.9,29.73,West,270,23.0,36.9,51,0.00,,,0.00,WUHU216HW,2013-02-13 12:16:00,
2013-02-13 05:17:00,40.7,23.9,29.73,West,270,23.7,35.1,51,0.00,,,0.00,WUHU216HW,2013-02-13 12:17:00,
2013-02-13 05:18:00,40.7,23.9,29.73,West,270,30.2,30.6,51,0.00,,,0.00,WUHU216HW,2013-02-13 12:18:00,
2013-02-13 05:20:00,40.7,23.9,29.73,WNW,293,25.7,40.9,51,0.00,,,0.00,WUHU216HW,2013-02-13 12:20:00,
2013-02-13 05:21:00,40.7,23.9,29.73,WSW,248,15.4,40.9,51,0.00,,,0.00,WUHU216HW,2013-02-13 12:21:00,
2013-02-13 05:22:00,40.7,23.9,29.73,West,270,21.0,40.9,51,0.00,,,0.00,WUHU216HW,2013-02-13 12:22:00,
2013-02-13 05:23:00,40.7,24.3,29.73,West,270,25.9,40.9,52,0.00,,,0.00,WUHU216HW,2013-02-13 12:23:00,
2013-02-13 05:25:00,40.7,23.9,29.73,WNW,293,31.8,40.9,51,0.00,,,0.00,WUHU216HW,2013-02-13 12:25:00,
2013-02-13 05:26:00,40.7,24.3,29.73,West,270,23.5,40.9,52,0.00,,,0.00,WUHU216HW,2013-02-13 12:26:00,
2013-02-13 05:27:00,40.5,23.8,29.73,NW,315,25.9,40.9,51,0.00,,,0.00,WUHU216HW,2013-02-13 12:27:00,
2013-02-13 05:28:00,40.7,23.9,29.73,NW,315,28.2,40.9,51,0.00,,,0.00,WUHU216HW,2013-02-13 12:28:00,
2013-02-13 05:30:00,40.7,23.9,29.73,WNW,293,43.4,43.4,51,0.00,,,0.00,WUHU216HW,2013-02-13 12:30:00,
2013-02-13 05:31:00,40.7,23.9,29.73,WNW,293,34.7,43.4,51,0.00,,,0.00,WUHU216HW,2013-02-13 12:31:00,
2013-02-13 05:32:00,40.7,23.9,29.73,WNW,293,31.3,43.4,51,0.00,,,0.00,WUHU216HW,2013-02-13 12:32:00,
2013-02-13 05:33:00,40.7,23.9,29.73,WNW,293,32.4,43.4,51,0.00,,,0.00,WUHU216HW,2013-02-13 12:33:00,
2013-02-13 05:35:00,40.7,23.9,29.73,West,270,25.3,43.4,51,0.00,,,0.00,WUHU216HW,2013-02-13 12:35:00,
2013-02-13 05:36:00,40.7,24.3,29.73,West,270,24.2,43.4,52,0.00,,,0.00,WUHU216HW,2013-02-13 12:36:00,
2013-02-13 05:37:00,40.7,23.9,29.72,WNW,293,28.2,43.4,51,0.00,,,0.00,WUHU216HW,2013-02-13 12:37:00,
2013-02-13 05:38:00,40.7,23.9,29.73,WNW,293,20.8,43.4,51,0.00,,,0.00,WUHU216HW,2013-02-13 12:38:00,
2013-02-13 05:41:00,40.7,23.9,29.72,WNW,293,34.4,34.9,51,0.00,,,0.00,WUHU216HW,2013-02-13 12:41:00,
2013-02-13 05:42:00,40.7,23.9,29.72,NW,315,25.1,34.4,51,0.00,,,0.00,WUHU216HW,2013-02-13 12:42:00,
2013-02-13 05:44:00,40.5,24.1,29.72,West,270,33.3,34.4,52,0.00,,,0.00,WUHU216HW,2013-02-13 12:44:00,
2013-02-13 05:46:00,40.7,23.9,29.72,WNW,293,23.0,37.1,51,0.00,,,0.00,WUHU216HW,2013-02-13 12:46:00,
2013-02-13 05:47:00,40.7,23.9,29.72,West,270,21.7,37.1,51,0.00,,,0.00,WUHU216HW,2013-02-13 12:47:00,
2013-02-13 05:49:00,40.5,24.1,29.72,WNW,293,31.8,37.1,52,0.00,,,0.00,WUHU216HW,2013-02-13 12:49:00,
2013-02-13 05:51:00,40.5,23.8,29.72,WNW,293,28.2,37.1,51,0.00,,,0.00,WUHU216HW,2013-02-13 12:51:00,
2013-02-13 05:52:00,40.5,23.8,29.71,West,270,29.1,37.1,51,0.00,,,0.00,WUHU216HW,2013-02-13 12:52:00,
2013-02-13 05:54:00,40.5,23.8,29.71,West,270,31.3,37.1,51,0.00,,,0.00,WUHU216HW,2013-02-13 12:54:00,
2013-02-13 05:57:00,40.7,23.4,29.71,WNW,293,32.7,34.0,50,0.00,,,0.00,WUHU216HW,2013-02-13 12:57:00,
2013-02-13 05:59:00,40.7,23.9,29.71,West,270,27.5,38.3,51,0.00,,,0.00,WUHU216HW,2013-02-13 12:59:00,
2013-02-13 06:02:00,40.7,23.9,29.71,WNW,293,29.8,38.3,51,0.00,,,0.00,WUHU216HW,2013-02-13 13:02:00,
2013-02-13 06:04:00,40.7,23.4,29.71,NW,315,24.8,38.3,50,0.00,,,0.00,WUHU216HW,2013-02-13 13:04:00,
2013-02-13 06:07:00,40.7,23.9,29.71,West,270,30.6,38.3,51,0.00,,,0.00,WUHU216HW,2013-02-13 13:07:00,
2013-02-13 06:08:00,40.7,23.9,29.71,West,270,27.5,38.3,51,0.00,,,0.00,WUHU216HW,2013-02-13 13:08:00,
2013-02-13 06:09:00,40.7,23.4,29.72,NW,315,23.5,34.4,50,0.00,,,0.00,WUHU216HW,2013-02-13 13:09:00,
2013-02-13 06:12:00,40.7,23.9,29.72,West,270,28.4,31.3,51,0.00,,,0.00,WUHU216HW,2013-02-13 13:12:00,
2013-02-13 06:13:00,40.7,23.9,29.72,WNW,293,24.6,31.3,51,0.00,,,0.00,WUHU216HW,2013-02-13 13:13:00,
2013-02-13 06:14:00,40.7,23.4,29.72,WNW,293,22.1,31.3,50,0.00,,,0.00,WUHU216HW,2013-02-13 13:14:00,
2013-02-13 06:17:00,40.7,23.4,29.72,NW,315,25.9,31.3,50,0.00,,,0.00,WUHU216HW,2013-02-13 13:17:00,
2013-02-13 06:18:00,40.7,23.9,29.72,NW,315,22.8,31.3,51,0.00,,,0.00,WUHU216HW,2013-02-13 13:18:00,
2013-02-13 06:19:00,40.5,23.8,29.72,WNW,293,19.9,31.3,51,0.00,,,0.00,WUHU216HW,2013-02-13 13:19:00,
2013-02-13 06:22:00,40.5,23.8,29.72,West,270,23.0,31.1,51,0.00,,,0.00,WUHU216HW,2013-02-13 13:22:00,
2013-02-13 06:23:00,40.5,23.8,29.72,WNW,293,23.5,31.1,51,0.00,,,0.00,WUHU216HW,2013-02-13 13:23:00,
2013-02-13 06:25:00,40.7,23.9,29.72,NW,315,23.3,30.6,51,0.00,,,0.00,WUHU216HW,2013-02-13 13:25:00,
2013-02-13 06:27:00,40.7,23.9,29.72,WNW,293,25.9,31.1,51,0.00,,,0.00,WUHU216HW,2013-02-13 13:27:00,
2013-02-13 06:28:00,40.5,23.8,29.72,West,270,18.3,31.1,51,0.00,,,0.00,WUHU216HW,2013-02-13 13:28:00,
2013-02-13 06:30:00,40.5,23.8,29.72,West,270,17.7,31.1,51,0.00,,,0.00,WUHU216HW,2013-02-13 13:30:00,
2013-02-13 06:32:00,40.3,23.6,29.72,WNW,293,24.6,31.1,51,0.00,,,0.00,WUHU216HW,2013-02-13 13:32:00,
2013-02-13 06:33:00,40.3,23.6,29.72,NW,315,25.9,31.1,51,0.00,,,0.00,WUHU216HW,2013-02-13 13:33:00,
2013-02-13 06:35:00,40.3,23.6,29.72,West,270,27.1,31.1,51,0.00,,,0.00,WUHU216HW,2013-02-13 13:35:00,
2013-02-13 06:37:00,40.3,23.6,29.73,NW,315,21.7,27.3,51,0.00,,,0.00,WUHU216HW,2013-02-13 13:37:00,
2013-02-13 06:38:00,40.3,23.6,29.73,WNW,293,22.4,27.3,51,0.00,,,0.00,WUHU216HW,2013-02-13 13:38:00,
2013-02-13 06:40:00,40.3,23.6,29.73,WNW,293,18.6,30.2,51,0.00,,,0.00,WUHU216HW,2013-02-13 13:40:00,
2013-02-13 06:43:00,40.3,23.6,29.73,WNW,293,19.5,30.2,51,0.00,,,0.00,WUHU216HW,2013-02-13 13:43:00,
2013-02-13 06:45:00,40.1,23.9,29.73,NW,315,16.3,30.2,52,0.00,,,0.00,WUHU216HW,2013-02-13 13:45:00,
2013-02-13 06:48:00,40.0,23.7,29.73,WNW,293,15.0,30.2,52,0.00,,,0.00,WUHU216HW,2013-02-13 13:48:00,
2013-02-13 06:49:00,40.0,23.7,29.73,NW,315,15.4,30.2,52,0.00,,,0.00,WUHU216HW,2013-02-13 13:49:00,
2013-02-13 06:51:00,39.8,23.5,29.73,WNW,293,17.2,23.0,52,0.00,,,0.00,WUHU216HW,2013-02-13 13:51:00,
2013-02-13 06:53:00,40.0,23.2,29.73,West,270,24.2,24.2,51,0.00,,,0.00,WUHU216HW,2013-02-13 13:53:00,
2013-02-13 06:54:00,40.1,23.4,29.73,WNW,293,22.4,25.5,51,0.00,,,0.00,WUHU216HW,2013-02-13 13:54:00,
2013-02-13 06:56:00,40.3,23.1,29.73,WNW,293,19.7,25.5,50,0.00,,,0.00,WUHU216HW,2013-02-13 13:56:00,
2013-02-13 06:58:00,40.3,23.6,29.73,WNW,293,17.0,25.5,51,0.00,,,0.00,WUHU216HW,2013-02-13 13:58:00,
2013-02-13 06:59:00,40.1,23.9,29.73,WNW,293,15.7,25.5,52,0.00,,,0.00,WUHU216HW,2013-02-13 13:59:00,
2013-02-13 07:01:00,40.3,23.6,29.73,WNW,293,20.1,26.2,51,0.00,,,0.00,WUHU216HW,2013-02-13 14:01:00,
2013-02-13 07:03:00,40.3,23.6,29.73,NW,315,16.3,26.2,51,0.00,,,0.00,WUHU216HW,2013-02-13 14:03:00,
2013-02-13 07:04:00,40.3,24.0,29.73,WNW,293,11.6,26.2,52,0.00,,,0.00,WUHU216HW,2013-02-13 14:04:00,
2013-02-13 07:06:00,40.0,23.7,29.73,NW,315,16.8,26.2,52,0.00,,,0.00,WUHU216HW,2013-02-13 14:06:00,
2013-02-13 07:08:00,40.0,23.7,29.73,NW,315,17.9,26.2,52,0.00,,,0.00,WUHU216HW,2013-02-13 14:08:00,
2013-02-13 07:09:00,40.0,23.2,29.73,WNW,293,21.5,26.2,51,0.00,,,0.00,WUHU216HW,2013-02-13 14:09:00,
2013-02-13 07:11:00,40.0,23.7,29.74,NW,315,29.5,29.5,52,0.00,,,0.00,WUHU216HW,2013-02-13 14:11:00,
2013-02-13 07:14:00,40.3,23.6,29.73,NW,315,19.5,33.3,51,0.00,,,0.00,WUHU216HW,2013-02-13 14:14:00,
2013-02-13 07:16:00,40.1,23.9,29.74,WNW,293,12.3,33.3,52,0.00,,,0.00,WUHU216HW,2013-02-13 14:16:00,
2013-02-13 07:19:00,40.0,23.7,29.73,NW,315,17.0,33.3,52,0.00,,,0.00,WUHU216HW,2013-02-13 14:19:00,
2013-02-13 07:21:00,39.8,23.5,29.73,WNW,293,20.4,33.3,52,0.00,,,0.00,WUHU216HW,2013-02-13 14:21:00,
2013-02-13 07:24:00,39.8,24.0,29.73,NW,315,17.2,23.0,53,0.00,,,0.00,WUHU216HW,2013-02-13 14:24:00,
2013-02-13 07:25:00,39.8,24.0,29.73,NW,315,22.8,23.0,53,0.00,,,0.00,WUHU216HW,2013-02-13 14:25:00,
2013-02-13 07:26:00,39.8,24.0,29.73,NW,315,18.6,26.4,53,0.00,,,0.00,WUHU216HW,2013-02-13 14:26:00,
2013-02-13 07:29:00,39.8,23.5,29.73,NNW,338,19.2,26.4,52,0.00,,,0.00,WUHU216HW,2013-02-13 14:29:00,
2013-02-13 07:30:00,39.8,23.5,29.73,NW,315,18.1,26.4,52,0.00,,,0.00,WUHU216HW,2013-02-13 14:30:00,
2013-02-13 07:32:00,39.8,23.5,29.73,NW,315,19.5,26.4,52,0.00,,,0.00,WUHU216HW,2013-02-13 14:32:00,
2013-02-13 07:35:00,40.0,23.2,29.72,NW,315,19.0,26.4,51,0.00,,,0.00,WUHU216HW,2013-02-13 14:35:00,
2013-02-13 07:37:00,39.8,22.6,29.72,NW,315,15.4,23.0,50,0.00,,,0.00,WUHU216HW,2013-02-13 14:37:00,
2013-02-13 07:40:00,40.0,22.8,29.72,WNW,293,24.8,24.8,50,0.00,,,0.00,WUHU216HW,2013-02-13 14:40:00,
2013-02-13 07:42:00,40.1,23.0,29.72,NW,315,17.2,28.6,50,0.00,,,0.00,WUHU216HW,2013-02-13 14:42:00,
2013-02-13 07:45:00,40.0,23.2,29.72,WNW,293,17.4,28.6,51,0.00,,,0.00,WUHU216HW,2013-02-13 14:45:00,
2013-02-13 07:46:00,40.0,23.2,29.72,WNW,293,18.6,28.6,51,0.00,,,0.00,WUHU216HW,2013-02-13 14:46:00,
2013-02-13 07:47:00,40.0,22.8,29.72,NW,315,19.5,28.6,50,0.00,,,0.00,WUHU216HW,2013-02-13 14:47:00,
2013-02-13 07:50:00,40.0,22.8,29.72,WNW,293,19.5,28.6,50,0.00,,,0.00,WUHU216HW,2013-02-13 14:50:00,
2013-02-13 07:51:00,40.0,22.8,29.72,WNW,293,19.5,24.8,50,0.00,,,0.00,WUHU216HW,2013-02-13 14:51:00,
2013-02-13 07:52:00,40.3,22.6,29.72,NW,315,25.5,27.3,49,0.00,,,0.00,WUHU216HW,2013-02-13 14:52:00,
2013-02-13 07:55:00,40.3,23.1,29.72,WNW,293,17.2,27.3,50,0.00,,,0.00,WUHU216HW,2013-02-13 14:55:00,
2013-02-13 07:56:00,40.1,23.0,29.73,West,270,15.7,27.3,50,0.00,,,0.00,WUHU216HW,2013-02-13 14:56:00,
2013-02-13 07:58:00,40.0,22.8,29.73,NW,315,17.0,27.3,50,0.00,,,0.00,WUHU216HW,2013-02-13 14:58:00,
2013-02-13 08:00:00,40.0,22.8,29.73,NW,315,18.6,27.3,50,0.00,,,0.00,WUHU216HW,2013-02-13 15:00:00,
2013-02-13 08:01:00,40.0,22.8,29.73,WNW,293,24.2,27.3,50,0.00,,,0.00,WUHU216HW,2013-02-13 15:01:00,
2013-02-13 08:03:00,40.1,23.4,29.73,WNW,293,17.0,24.2,51,0.00,,,0.00,WUHU216HW,2013-02-13 15:03:00,
2013-02-13 08:05:00,40.0,22.8,29.73,West,270,19.5,24.2,50,0.00,,,0.00,WUHU216HW,2013-02-13 15:05:00,
2013-02-13 08:06:00,40.0,22.8,29.73,NW,315,16.3,24.2,50,0.00,,,0.00,WUHU216HW,2013-02-13 15:06:00,
2013-02-13 08:08:00,40.1,23.4,29.74,NW,315,14.3,24.2,51,0.00,,,0.00,WUHU216HW,2013-02-13 15:08:00,
2013-02-13 08:10:00,40.1,23.0,29.74,NW,315,15.0,24.2,50,0.00,,,0.00,WUHU216HW,2013-02-13 15:10:00,
2013-02-13 08:11:00,40.1,23.0,29.74,WNW,293,12.8,24.2,50,0.00,,,0.00,WUHU216HW,2013-02-13 15:11:00,
2013-02-13 08:13:00,40.3,23.1,29.74,WNW,293,18.3,20.6,50,0.00,,,0.00,WUHU216HW,2013-02-13 15:13:00,
2013-02-13 08:15:00,40.3,23.6,29.74,NW,315,17.0,20.6,51,0.00,,,0.00,WUHU216HW,2013-02-13 15:15:00,
2013-02-13 08:16:00,40.3,23.6,29.74,NW,315,15.9,20.6,51,0.00,,,0.00,WUHU216HW,2013-02-13 15:16:00,
2013-02-13 08:18:00,40.3,23.6,29.74,WNW,293,9.8,21.0,51,0.00,,,0.00,WUHU216HW,2013-02-13 15:18:00,
2013-02-13 08:20:00,40.1,23.9,29.74,NW,315,16.8,21.0,52,0.00,,,0.00,WUHU216HW,2013-02-13 15:20:00,
2013-02-13 08:21:00,40.1,23.4,29.74,NW,315,23.7,23.7,51,0.00,,,0.00,WUHU216HW,2013-02-13 15:21:00,
2013-02-13 08:23:00,40.3,23.1,29.74,WNW,293,19.2,23.7,50,0.00,,,0.00,WUHU216HW,2013-02-13 15:23:00,
2013-02-13 08:25:00,40.3,23.1,29.75,WNW,293,18.6,23.7,50,0.00,,,0.00,WUHU216HW,2013-02-13 15:25:00,
2013-02-13 08:26:00,40.3,23.1,29.75,WNW,293,19.9,23.7,50,0.00,,,0.00,WUHU216HW,2013-02-13 15:26:00,
2013-02-13 08:27:00,40.3,23.1,29.75,NW,315,17.9,23.7,50,0.00,,,0.00,WUHU216HW,2013-02-13 15:27:00,
2013-02-13 08:29:00,40.3,23.6,29.75,NW,315,17.2,23.7,51,0.00,,,0.00,WUHU216HW,2013-02-13 15:29:00,
2013-02-13 08:31:00,40.1,23.4,29.75,NW,315,15.0,23.7,51,0.00,,,0.00,WUHU216HW,2013-02-13 15:31:00,
2013-02-13 08:32:00,40.1,23.4,29.75,NNW,338,15.0,22.4,51,0.00,,,0.00,WUHU216HW,2013-02-13 15:32:00,
2013-02-13 08:34:00,40.1,23.0,29.75,NW,315,19.2,21.5,50,0.00,,,0.00,WUHU216HW,2013-02-13 15:34:00,
2013-02-13 08:36:00,40.3,23.1,29.75,WNW,293,20.8,24.4,50,0.00,,,0.00,WUHU216HW,2013-02-13 15:36:00,
2013-02-13 08:37:00,40.3,23.1,29.75,NW,315,31.8,31.8,50,0.00,,,0.00,WUHU216HW,2013-02-13 15:37:00,
2013-02-13 08:39:00,40.3,23.1,29.75,NW,315,14.1,31.8,50,0.00,,,0.00,WUHU216HW,2013-02-13 15:39:00,
2013-02-13 08:41:00,40.1,23.4,29.75,WNW,293,17.4,31.8,51,0.00,,,0.00,WUHU216HW,2013-02-13 15:41:00,
2013-02-13 08:42:00,40.0,23.2,29.75,NW,315,17.2,31.8,51,0.00,,,0.00,WUHU216HW,2013-02-13 15:42:00,
2013-02-13 08:44:00,40.0,23.2,29.75,NW,315,16.3,31.8,51,0.00,,,0.00,WUHU216HW,2013-02-13 15:44:00,
2013-02-13 08:46:00,40.1,23.4,29.75,NW,315,15.9,31.8,51,0.00,,,0.00,WUHU216HW,2013-02-13 15:46:00,
2013-02-13 08:47:00,40.1,23.0,29.75,NNW,338,17.4,31.8,50,0.00,,,0.00,WUHU216HW,2013-02-13 15:47:00,
2013-02-13 08:49:00,40.0,22.8,29.75,NNW,338,23.3,25.5,50,0.00,,,0.00,WUHU216HW,2013-02-13 15:49:00,
2013-02-13 08:51:00,40.1,23.4,29.75,NW,315,17.2,25.5,51,0.00,,,0.00,WUHU216HW,2013-02-13 15:51:00,
2013-02-13 08:52:00,40.0,23.7,29.75,NW,315,17.7,25.5,52,0.00,,,0.00,WUHU216HW,2013-02-13 15:52:00,
2013-02-13 08:54:00,40.0,23.2,29.75,NW,315,21.5,25.5,51,0.00,,,0.00,WUHU216HW,2013-02-13 15:54:00,
2013-02-13 08:56:00,40.1,23.9,29.75,NNW,338,25.3,25.3,52,0.00,,,0.00,WUHU216HW,2013-02-13 15:56:00,
2013-02-13 08:57:00,40.0,23.2,29.75,NW,315,25.9,25.9,51,0.00,,,0.00,WUHU216HW,2013-02-13 15:57:00,
2013-02-13 08:59:00,40.5,23.3,29.75,NW,315,24.2,29.8,50,0.00,,,0.00,WUHU216HW,2013-02-13 15:59:00,
2013-02-13 09:02:00,40.7,23.4,29.75,NW,315,27.7,29.8,50,0.00,,,0.00,WUHU216HW,2013-02-13 16:02:00,
2013-02-13 09:04:00,40.5,23.3,29.75,NNW,338,22.1,29.8,50,0.00,,,0.00,WUHU216HW,2013-02-13 16:04:00,
2013-02-13 09:07:00,40.7,23.0,29.76,NW,315,29.3,29.8,49,0.00,,,0.00,WUHU216HW,2013-02-13 16:07:00,
2013-02-13 09:08:00,40.5,23.3,29.76,NW,315,25.5,29.8,50,0.00,,,0.00,WUHU216HW,2013-02-13 16:08:00,
2013-02-13 09:10:00,40.5,22.8,29.76,NW,315,23.5,31.1,49,0.00,,,0.00,WUHU216HW,2013-02-13 16:10:00,
2013-02-13 09:12:00,40.5,23.3,29.76,NNW,338,33.1,33.1,50,0.00,,,0.00,WUHU216HW,2013-02-13 16:12:00,
2013-02-13 09:13:00,40.3,23.1,29.76,NNW,338,24.4,33.1,50,0.00,,,0.00,WUHU216HW,2013-02-13 16:13:00,
2013-02-13 09:15:00,40.3,23.1,29.77,NNW,338,29.5,33.1,50,0.00,,,0.00,WUHU216HW,2013-02-13 16:15:00,
2013-02-13 09:17:00,40.5,23.3,29.77,NNW,338,23.5,33.1,50,0.00,,,0.00,WUHU216HW,2013-02-13 16:17:00,
2013-02-13 09:18:00,40.3,23.1,29.77,NNW,338,24.2,33.1,50,0.00,,,0.00,WUHU216HW,2013-02-13 16:18:00,
2013-02-13 09:20:00,40.3,23.1,29.77,NNW,338,25.3,33.1,50,0.00,,,0.00,WUHU216HW,2013-02-13 16:20:00,
2013-02-13 09:22:00,40.5,22.8,29.77,NW,315,25.7,30.2,49,0.00,,,0.00,WUHU216HW,2013-02-13 16:22:00,
2013-02-13 09:23:00,40.7,23.4,29.77,NW,315,16.6,29.8,50,0.00,,,0.00,WUHU216HW,2013-02-13 16:23:00,
2013-02-13 09:25:00,41.0,23.8,29.77,NW,315,21.5,29.8,50,0.00,,,0.00,WUHU216HW,2013-02-13 16:25:00,
2013-02-13 09:27:00,41.2,23.9,29.77,WNW,293,16.1,29.8,50,0.00,,,0.00,WUHU216HW,2013-02-13 16:27:00,
2013-02-13 09:28:00,41.0,23.2,29.77,WNW,293,20.4,29.8,49,0.00,,,0.00,WUHU216HW,2013-02-13 16:28:00,
2013-02-13 09:30:00,41.0,23.8,29.77,NNW,338,19.5,29.8,50,0.00,,,0.00,WUHU216HW,2013-02-13 16:30:00,
2013-02-13 09:32:00,40.9,24.0,29.77,NW,315,19.5,27.3,51,0.00,,,0.00,WUHU216HW,2013-02-13 16:32:00,
2013-02-13 09:33:00,40.9,24.0,29.77,NW,315,19.0,21.5,51,0.00,,,0.00,WUHU216HW,2013-02-13 16:33:00,
2013-02-13 09:34:00,40.9,24.0,29.77,NNW,338,15.7,21.5,51,0.00,,,0.00,WUHU216HW,2013-02-13 16:34:00,
2013-02-13 09:36:00,40.7,23.9,29.77,NW,315,17.9,24.2,51,0.00,,,0.00,WUHU216HW,2013-02-13 16:36:00,
2013-02-13 09:37:00,40.7,23.9,29.77,NW,315,17.9,24.2,51,0.00,,,0.00,WUHU216HW,2013-02-13 16:37:00,
2013-02-13 09:38:00,40.7,23.9,29.76,NW,315,19.9,24.2,51,0.00,,,0.00,WUHU216HW,2013-02-13 16:38:00,
2013-02-13 09:39:00,40.9,24.0,29.76,NW,315,17.7,24.2,51,0.00,,,0.00,WUHU216HW,2013-02-13 16:39:00,
2013-02-13 09:41:00,41.0,24.2,29.76,NNW,338,23.0,24.2,51,0.00,,,0.00,WUHU216HW,2013-02-13 16:41:00,
2013-02-13 09:42:00,41.2,23.9,29.76,NNW,338,24.2,27.3,50,0.00,,,0.00,WUHU216HW,2013-02-13 16:42:00,
2013-02-13 09:43:00,41.4,24.1,29.76,NW,315,21.3,27.3,50,0.00,,,0.00,WUHU216HW,2013-02-13 16:43:00,
2013-02-13 09:44:00,41.4,23.6,29.77,NNW,338,21.9,27.3,49,0.00,,,0.00,WUHU216HW,2013-02-13 16:44:00,
2013-02-13 09:46:00,41.4,24.1,29.77,NW,315,17.2,27.3,50,0.00,,,0.00,WUHU216HW,2013-02-13 16:46:00,
2013-02-13 09:47:00,41.4,23.6,29.77,NW,315,26.2,27.3,49,0.00,,,0.00,WUHU216HW,2013-02-13 16:47:00,
2013-02-13 09:48:00,41.2,23.4,29.77,NW,315,23.0,27.3,49,0.00,,,0.00,WUHU216HW,2013-02-13 16:48:00,
2013-02-13 09:49:00,41.2,23.9,29.77,NW,315,17.9,27.3,50,0.00,,,0.00,WUHU216HW,2013-02-13 16:49:00,
2013-02-13 09:51:00,41.0,23.8,29.76,NW,315,18.1,26.2,50,0.00,,,0.00,WUHU216HW,2013-02-13 16:51:00,
2013-02-13 09:53:00,41.0,23.8,29.76,WNW,293,15.0,26.2,50,0.00,,,0.00,WUHU216HW,2013-02-13 16:53:00,
2013-02-13 09:54:00,41.2,23.9,29.77,NW,315,17.7,26.2,50,0.00,,,0.00,WUHU216HW,2013-02-13 16:54:00,
2013-02-13 09:57:00,41.4,24.1,29.77,NW,315,22.4,26.4,50,0.00,,,0.00,WUHU216HW,2013-02-13 16:57:00,
2013-02-13 09:58:00,41.4,23.6,29.77,NNW,338,26.4,26.4,49,0.00,,,0.00,WUHU216HW,2013-02-13 16:58:00,
2013-02-13 09:59:00,41.4,23.6,29.77,NW,315,24.6,28.6,49,0.00,,,0.00,WUHU216HW,2013-02-13 16:59:00,
2013-02-13 10:02:00,41.2,23.4,29.77,NNW,338,24.4,28.6,49,0.00,,,0.00,WUHU216HW,2013-02-13 17:02:00,
2013-02-13 10:03:00,41.4,24.1,29.77,NW,315,13.9,28.6,50,0.00,,,0.00,WUHU216HW,2013-02-13 17:03:00,
2013-02-13 10:04:00,41.4,23.6,29.77,North,0,22.4,28.6,49,0.00,,,0.00,WUHU216HW,2013-02-13 17:04:00,
2013-02-13 10:07:00,41.4,24.1,29.77,NW,315,14.1,28.6,50,0.00,,,0.00,WUHU216HW,2013-02-13 17:07:00,
2013-02-13 10:08:00,41.6,24.3,29.77,NW,315,16.6,28.6,50,0.00,,,0.00,WUHU216HW,2013-02-13 17:08:00,
2013-02-13 10:09:00,41.6,24.3,29.77,NW,315,16.6,24.6,50,0.00,,,0.00,WUHU216HW,2013-02-13 17:09:00,
2013-02-13 10:12:00,41.8,24.5,29.77,NW,315,17.9,29.3,50,0.00,,,0.00,WUHU216HW,2013-02-13 17:12:00,
2013-02-13 10:13:00,41.8,23.9,29.77,NW,315,24.4,29.3,49,0.00,,,0.00,WUHU216HW,2013-02-13 17:13:00,
2013-02-13 10:14:00,41.9,24.1,29.77,NW,315,22.4,29.3,49,0.00,,,0.00,WUHU216HW,2013-02-13 17:14:00,
2013-02-13 10:17:00,41.8,23.9,29.77,NNW,338,25.9,31.8,49,0.00,,,0.00,WUHU216HW,2013-02-13 17:17:00,
2013-02-13 10:18:00,41.8,23.9,29.77,NW,315,27.5,31.8,49,0.00,,,0.00,WUHU216HW,2013-02-13 17:18:00,
2013-02-13 10:19:00,41.9,23.6,29.77,North,0,35.3,35.3,48,0.00,,,0.00,WUHU216HW,2013-02-13 17:19:00,
2013-02-13 10:22:00,41.8,23.9,29.77,NW,315,24.4,37.6,49,0.00,,,0.00,WUHU216HW,2013-02-13 17:22:00,
2013-02-13 10:23:00,41.8,23.9,29.77,NW,315,19.9,37.6,49,0.00,,,0.00,WUHU216HW,2013-02-13 17:23:00,
2013-02-13 10:24:00,41.9,24.1,29.77,WNW,293,24.4,37.6,49,0.00,,,0.00,WUHU216HW,2013-02-13 17:24:00,
2013-02-13 10:28:00,41.8,23.4,29.77,NNW,338,23.7,37.6,48,0.00,,,0.00,WUHU216HW,2013-02-13 17:28:00,
2013-02-13 10:29:00,41.6,23.8,29.77,NW,315,32.4,36.0,49,0.00,,,0.00,WUHU216HW,2013-02-13 17:29:00,
2013-02-13 10:30:00,41.6,23.8,29.77,NW,315,29.1,32.4,49,0.00,,,0.00,WUHU216HW,2013-02-13 17:30:00,
2013-02-13 10:33:00,41.6,23.8,29.77,WNW,293,23.7,32.4,49,0.00,,,0.00,WUHU216HW,2013-02-13 17:33:00,
2013-02-13 10:34:00,41.6,23.8,29.77,WNW,293,30.9,32.4,49,0.00,,,0.00,WUHU216HW,2013-02-13 17:34:00,
2013-02-13 10:35:00,41.8,23.4,29.77,NNW,338,23.0,32.4,48,0.00,,,0.00,WUHU216HW,2013-02-13 17:35:00,
2013-02-13 10:38:00,41.8,23.9,29.77,NNW,338,25.7,34.0,49,0.00,,,0.00,WUHU216HW,2013-02-13 17:38:00,
2013-02-13 10:39:00,41.8,23.9,29.77,NW,315,32.9,34.0,49,0.00,,,0.00,WUHU216HW,2013-02-13 17:39:00,
2013-02-13 10:40:00,41.8,23.9,29.77,NW,315,25.9,34.0,49,0.00,,,0.00,WUHU216HW,2013-02-13 17:40:00,
2013-02-13 10:43:00,42.1,23.8,29.77,NW,315,35.8,35.8,48,0.00,,,0.00,WUHU216HW,2013-02-13 17:43:00,
2013-02-13 10:44:00,42.1,23.8,29.77,NW,315,30.9,35.8,48,0.00,,,0.00,WUHU216HW,2013-02-13 17:44:00,
2013-02-13 10:45:00,41.8,23.4,29.77,NW,315,26.6,35.8,48,0.00,,,0.00,WUHU216HW,2013-02-13 17:45:00,
2013-02-13 10:48:00,41.6,23.2,29.77,WNW,293,33.6,37.6,48,0.00,,,0.00,WUHU216HW,2013-02-13 17:48:00,
2013-02-13 10:49:00,41.6,23.2,29.77,WNW,293,23.3,37.6,48,0.00,,,0.00,WUHU216HW,2013-02-13 17:49:00,
2013-02-13 10:50:00,41.8,23.9,29.77,WNW,293,18.6,37.6,49,0.00,,,0.00,WUHU216HW,2013-02-13 17:50:00,
2013-02-13 10:51:00,41.8,23.9,29.77,WNW,293,24.4,37.6,49,0.00,,,0.00,WUHU216HW,2013-02-13 17:51:00,
2013-02-13 10:53:00,41.6,23.8,29.78,NW,315,30.4,37.6,49,0.00,,,0.00,WUHU216HW,2013-02-13 17:53:00,
2013-02-13 10:54:00,41.6,23.2,29.77,NW,315,24.2,37.6,48,0.00,,,0.00,WUHU216HW,2013-02-13 17:54:00,
2013-02-13 10:55:00,41.4,23.6,29.78,NW,315,25.9,37.6,49,0.00,,,0.00,WUHU216HW,2013-02-13 17:55:00,
2013-02-13 10:56:00,41.4,23.0,29.78,North,0,23.0,37.6,48,0.00,,,0.00,WUHU216HW,2013-02-13 17:56:00,
2013-02-13 10:59:00,41.4,23.6,29.78,WNW,293,27.1,30.4,49,0.00,,,0.00,WUHU216HW,2013-02-13 17:59:00,
2013-02-13 11:00:00,41.4,23.0,29.78,NW,315,26.6,30.4,48,0.00,,,0.00,WUHU216HW,2013-02-13 18:00:00,
2013-02-13 11:01:00,41.4,23.0,29.78,WNW,293,24.4,30.4,48,0.00,,,0.00,WUHU216HW,2013-02-13 18:01:00,
2013-02-13 11:04:00,41.6,23.8,29.78,NW,315,29.5,34.7,49,0.00,,,0.00,WUHU216HW,2013-02-13 18:04:00,
2013-02-13 11:05:00,41.8,23.4,29.78,NNW,338,23.9,34.7,48,0.00,,,0.00,WUHU216HW,2013-02-13 18:05:00,
2013-02-13 11:06:00,41.8,23.9,29.78,NW,315,18.1,34.7,49,0.00,,,0.00,WUHU216HW,2013-02-13 18:06:00,
2013-02-13 11:09:00,41.4,23.6,29.78,NW,315,23.5,34.7,49,0.00,,,0.00,WUHU216HW,2013-02-13 18:09:00,
2013-02-13 11:10:00,41.4,23.6,29.78,NNW,338,28.9,34.7,49,0.00,,,0.00,WUHU216HW,2013-02-13 18:10:00,
2013-02-13 11:11:00,41.4,23.6,29.78,NNW,338,22.4,34.7,49,0.00,,,0.00,WUHU216HW,2013-02-13 18:11:00,
2013-02-13 11:14:00,41.0,22.7,29.78,NW,315,31.8,33.8,48,0.00,,,0.00,WUHU216HW,2013-02-13 18:14:00,
2013-02-13 11:15:00,41.0,23.2,29.78,NNW,338,28.2,33.8,49,0.00,,,0.00,WUHU216HW,2013-02-13 18:15:00,
2013-02-13 11:16:00,41.0,23.2,29.78,NNW,338,27.1,33.8,49,0.00,,,0.00,WUHU216HW,2013-02-13 18:16:00,
2013-02-13 11:19:00,41.2,23.4,29.78,NW,315,21.7,33.8,49,0.00,,,0.00,WUHU216HW,2013-02-13 18:19:00,
2013-02-13 11:20:00,41.4,24.1,29.78,WNW,293,24.2,33.8,50,0.00,,,0.00,WUHU216HW,2013-02-13 18:20:00,
2013-02-13 11:21:00,41.4,23.6,29.78,NNW,338,23.9,33.8,49,0.00,,,0.00,WUHU216HW,2013-02-13 18:21:00,
2013-02-13 11:24:00,41.9,23.6,29.79,NW,315,30.4,31.3,48,0.00,,,0.00,WUHU216HW,2013-02-13 18:24:00,
2013-02-13 11:25:00,41.8,23.4,29.78,NW,315,30.0,31.8,48,0.00,,,0.00,WUHU216HW,2013-02-13 18:25:00,
2013-02-13 11:26:00,41.6,23.8,29.79,WNW,293,31.8,31.8,49,0.00,,,0.00,WUHU216HW,2013-02-13 18:26:00,
2013-02-13 11:30:00,41.6,24.3,29.78,NW,315,20.8,32.2,50,0.00,,,0.00,WUHU216HW,2013-02-13 18:30:00,
2013-02-13 11:31:00,41.9,24.1,29.78,NW,315,19.9,32.2,49,0.00,,,0.00,WUHU216HW,2013-02-13 18:31:00,
2013-02-13 11:35:00,41.6,23.8,29.79,NW,315,24.6,37.6,49,0.00,,,0.00,WUHU216HW,2013-02-13 18:35:00,
2013-02-13 11:36:00,41.6,23.8,29.78,NNW,338,22.6,37.6,49,0.00,,,0.00,WUHU216HW,2013-02-13 18:36:00,
2013-02-13 11:40:00,42.3,24.5,29.79,NW,315,23.3,37.6,49,0.00,,,0.00,WUHU216HW,2013-02-13 18:40:00,
2013-02-13 11:41:00,42.3,23.9,29.79,NW,315,24.4,37.6,48,0.00,,,0.00,WUHU216HW,2013-02-13 18:41:00,
2013-02-13 11:45:00,42.8,25.6,29.79,NNW,338,17.2,29.3,50,0.00,,,0.00,WUHU216HW,2013-02-13 18:45:00,
2013-02-13 11:46:00,42.8,24.5,29.79,WNW,293,18.6,29.3,48,0.00,,,0.00,WUHU216HW,2013-02-13 18:46:00,
2013-02-13 11:51:00,42.8,24.5,29.79,NNW,338,20.1,29.3,48,0.00,,,0.00,WUHU216HW,2013-02-13 18:51:00,
2013-02-13 11:52:00,42.8,24.5,29.78,NNW,338,26.8,26.8,48,0.00,,,0.00,WUHU216HW,2013-02-13 18:52:00,
2013-02-13 11:56:00,42.8,23.9,29.78,NW,315,28.2,28.2,47,0.00,,,0.00,WUHU216HW,2013-02-13 18:56:00,
2013-02-13 11:57:00,42.7,24.3,29.78,NW,315,23.3,28.2,48,0.00,,,0.00,WUHU216HW,2013-02-13 18:57:00,
2013-02-13 12:01:00,42.1,23.8,29.78,WNW,293,29.3,32.0,48,0.00,,,0.00,WUHU216HW,2013-02-13 19:01:00,
2013-02-13 12:02:00,42.1,23.8,29.78,NNW,338,28.2,32.0,48,0.00,,,0.00,WUHU216HW,2013-02-13 19:02:00,
2013-02-13 12:06:00,41.8,23.9,29.78,NW,315,23.5,36.0,49,0.00,,,0.00,WUHU216HW,2013-02-13 19:06:00,
2013-02-13 12:07:00,41.6,23.2,29.78,NW,315,24.4,36.0,48,0.00,,,0.00,WUHU216HW,2013-02-13 19:07:00,
2013-02-13 12:11:00,41.9,24.1,29.78,NW,315,18.8,36.0,49,0.00,,,0.00,WUHU216HW,2013-02-13 19:11:00,
2013-02-13 12:12:00,42.1,24.3,29.78,NNW,338,25.1,36.0,49,0.00,,,0.00,WUHU216HW,2013-02-13 19:12:00,
2013-02-13 12:17:00,42.5,24.7,29.78,NNW,338,20.8,32.2,49,0.00,,,0.00,WUHU216HW,2013-02-13 19:17:00,
2013-02-13 12:22:00,42.8,24.5,29.78,WNW,293,24.2,28.9,48,0.00,,,0.00,WUHU216HW,2013-02-13 19:22:00,
2013-02-13 12:23:00,42.8,25.0,29.78,NNW,338,21.0,27.3,49,0.00,,,0.00,WUHU216HW,2013-02-13 19:23:00,
2013-02-13 12:27:00,42.8,25.0,29.78,NW,315,22.4,28.4,49,0.00,,,0.00,WUHU216HW,2013-02-13 19:27:00,
2013-02-13 12:28:00,43.0,24.7,29.78,NW,315,25.9,28.4,48,0.00,,,0.00,WUHU216HW,2013-02-13 19:28:00,
2013-02-13 12:32:00,42.8,24.5,29.78,NW,315,23.7,32.9,48,0.00,,,0.00,WUHU216HW,2013-02-13 19:32:00,
2013-02-13 12:33:00,42.8,24.5,29.78,WNW,293,23.3,32.9,48,0.00,,,0.00,WUHU216HW,2013-02-13 19:33:00,
2013-02-13 12:37:00,42.8,25.0,29.78,NNW,338,22.4,32.9,49,0.00,,,0.00,WUHU216HW,2013-02-13 19:37:00,
2013-02-13 12:38:00,42.8,25.6,29.78,NW,315,18.8,32.9,50,0.00,,,0.00,WUHU216HW,2013-02-13 19:38:00,
2013-02-13 12:42:00,42.8,23.9,29.78,NNW,338,29.5,30.6,47,0.00,,,0.00,WUHU216HW,2013-02-13 19:42:00,
2013-02-13 12:43:00,42.8,23.4,29.78,NW,315,30.4,32.4,46,0.00,,,0.00,WUHU216HW,2013-02-13 19:43:00,
2013-02-13 12:47:00,42.5,23.0,29.78,WNW,293,34.2,34.2,46,0.00,,,0.00,WUHU216HW,2013-02-13 19:47:00,
2013-02-13 12:48:00,42.5,23.0,29.78,WNW,293,34.2,34.2,46,0.00,,,0.00,WUHU216HW,2013-02-13 19:48:00,
2013-02-13 12:53:00,41.9,22.5,29.78,NW,315,20.4,34.2,46,0.00,,,0.00,WUHU216HW,2013-02-13 19:53:00,
2013-02-13 12:58:00,42.5,24.1,29.78,NNW,338,29.3,34.0,48,0.00,,,0.00,WUHU216HW,2013-02-13 19:58:00,
2013-02-13 12:59:00,42.5,24.1,29.78,NW,315,28.6,31.1,48,0.00,,,0.00,WUHU216HW,2013-02-13 19:59:00,
2013-02-13 13:03:00,42.1,23.8,29.78,NW,315,19.2,32.2,48,0.00,,,0.00,WUHU216HW,2013-02-13 20:03:00,
2013-02-13 13:04:00,42.3,24.5,29.78,NNW,338,25.1,32.2,49,0.00,,,0.00,WUHU216HW,2013-02-13 20:04:00,
2013-02-13 13:08:00,41.8,23.4,29.78,NW,315,24.6,37.1,48,0.00,,,0.00,WUHU216HW,2013-02-13 20:08:00,
2013-02-13 13:09:00,41.4,23.6,29.78,NW,315,28.2,37.1,49,0.00,,,0.00,WUHU216HW,2013-02-13 20:09:00,
2013-02-13 13:13:00,41.4,23.6,29.78,NW,315,21.0,37.1,49,0.00,,,0.00,WUHU216HW,2013-02-13 20:13:00,
2013-02-13 13:14:00,41.6,23.8,29.78,NW,315,27.1,37.1,49,0.00,,,0.00,WUHU216HW,2013-02-13 20:14:00,
2013-02-13 13:18:00,41.9,24.7,29.78,NW,315,26.8,32.9,50,0.00,,,0.00,WUHU216HW,2013-02-13 20:18:00,
2013-02-13 13:19:00,41.9,24.1,29.78,NNW,338,23.0,30.9,49,0.00,,,0.00,WUHU216HW,2013-02-13 20:19:00,
2013-02-13 13:23:00,42.3,23.9,29.78,NNW,338,23.3,32.4,48,0.00,,,0.00,WUHU216HW,2013-02-13 20:23:00,
2013-02-13 13:24:00,42.5,24.7,29.78,NW,315,26.4,32.4,49,0.00,,,0.00,WUHU216HW,2013-02-13 20:24:00,
2013-02-13 13:28:00,42.7,24.8,29.78,NNW,338,24.4,32.4,49,0.00,,,0.00,WUHU216HW,2013-02-13 20:28:00,
2013-02-13 13:29:00,42.8,25.0,29.78,NW,315,19.9,32.4,49,0.00,,,0.00,WUHU216HW,2013-02-13 20:29:00,
2013-02-13 13:30:00,42.8,24.5,29.78,NNW,338,27.3,28.9,48,0.00,,,0.00,WUHU216HW,2013-02-13 20:30:00,
2013-02-13 13:33:00,42.8,23.9,29.78,NNW,338,23.0,28.9,47,0.00,,,0.00,WUHU216HW,2013-02-13 20:33:00,
2013-02-13 13:34:00,42.8,23.9,29.78,NW,315,29.1,29.1,47,0.00,,,0.00,WUHU216HW,2013-02-13 20:34:00,
2013-02-13 13:35:00,42.8,23.4,29.78,NW,315,23.9,29.1,46,0.00,,,0.00,WUHU216HW,2013-02-13 20:35:00,
2013-02-13 13:38:00,42.7,23.2,29.78,NW,315,25.7,29.1,46,0.00,,,0.00,WUHU216HW,2013-02-13 20:38:00,
2013-02-13 13:39:00,42.7,23.2,29.78,NW,315,22.6,29.1,46,0.00,,,0.00,WUHU216HW,2013-02-13 20:39:00,
2013-02-13 13:40:00,42.7,23.2,29.78,NW,315,20.1,29.1,46,0.00,,,0.00,WUHU216HW,2013-02-13 20:40:00,
2013-02-13 13:43:00,42.8,23.9,29.78,NW,315,26.8,29.1,47,0.00,,,0.00,WUHU216HW,2013-02-13 20:43:00,
2013-02-13 13:44:00,42.8,23.4,29.78,NW,315,24.4,29.1,46,0.00,,,0.00,WUHU216HW,2013-02-13 20:44:00,
2013-02-13 13:45:00,42.8,23.4,29.78,NW,315,23.7,31.1,46,0.00,,,0.00,WUHU216HW,2013-02-13 20:45:00,
2013-02-13 13:46:00,42.8,23.4,29.78,NW,315,19.9,31.1,46,0.00,,,0.00,WUHU216HW,2013-02-13 20:46:00,
2013-02-13 13:48:00,42.8,23.4,29.78,NW,315,17.2,31.1,46,0.00,,,0.00,WUHU216HW,2013-02-13 20:48:00,
2013-02-13 13:49:00,42.8,23.4,29.78,NW,315,21.3,31.1,46,0.00,,,0.00,WUHU216HW,2013-02-13 20:49:00,
2013-02-13 13:50:00,42.8,23.4,29.78,NW,315,21.3,31.1,46,0.00,,,0.00,WUHU216HW,2013-02-13 20:50:00,
2013-02-13 13:51:00,42.8,23.4,29.78,NW,315,21.5,31.1,46,0.00,,,0.00,WUHU216HW,2013-02-13 20:51:00,
2013-02-13 13:53:00,42.8,22.3,29.78,NW,315,30.2,31.1,44,0.00,,,0.00,WUHU216HW,2013-02-13 20:53:00,
2013-02-13 13:54:00,42.7,22.1,29.78,NNW,338,25.1,31.1,44,0.00,,,0.00,WUHU216HW,2013-02-13 20:54:00,
2013-02-13 13:55:00,42.5,22.0,29.78,NW,315,29.1,31.1,44,0.00,,,0.00,WUHU216HW,2013-02-13 20:55:00,
2013-02-13 13:56:00,42.5,22.5,29.78,WNW,293,17.0,31.1,45,0.00,,,0.00,WUHU216HW,2013-02-13 20:56:00,
2013-02-13 13:59:00,42.1,22.7,29.78,NW,315,14.3,31.1,46,0.00,,,0.00,WUHU216HW,2013-02-13 20:59:00,
2013-02-13 14:00:00,42.1,22.7,29.78,NW,315,29.1,31.1,46,0.00,,,0.00,WUHU216HW,2013-02-13 21:00:00,
2013-02-13 14:01:00,42.1,22.1,29.78,NNW,338,22.6,31.1,45,0.00,,,0.00,WUHU216HW,2013-02-13 21:01:00,
2013-02-13 14:04:00,42.1,22.7,29.78,NW,315,16.3,31.1,46,0.00,,,0.00,WUHU216HW,2013-02-13 21:04:00,
2013-02-13 14:05:00,42.1,23.2,29.78,NW,315,17.7,29.1,47,0.00,,,0.00,WUHU216HW,2013-02-13 21:05:00,
2013-02-13 14:06:00,42.1,22.7,29.78,NNW,338,19.2,29.1,46,0.00,,,0.00,WUHU216HW,2013-02-13 21:06:00,
2013-02-13 14:09:00,41.8,22.3,29.78,NW,315,28.0,29.1,46,0.00,,,0.00,WUHU216HW,2013-02-13 21:09:00,
2013-02-13 14:10:00,41.8,21.9,29.78,NW,315,27.1,32.4,45,0.00,,,0.00,WUHU216HW,2013-02-13 21:10:00,
2013-02-13 14:11:00,41.8,21.3,29.78,NW,315,27.3,32.4,44,0.00,,,0.00,WUHU216HW,2013-02-13 21:11:00,
2013-02-13 14:14:00,41.6,22.2,29.78,NNW,338,21.5,37.1,46,0.00,,,0.00,WUHU216HW,2013-02-13 21:14:00,
2013-02-13 14:15:00,41.4,21.5,29.78,NNW,338,28.6,37.1,45,0.00,,,0.00,WUHU216HW,2013-02-13 21:15:00,
2013-02-13 14:17:00,41.4,22.1,29.78,NNW,338,31.1,37.1,46,0.00,,,0.00,WUHU216HW,2013-02-13 21:17:00,
2013-02-13 14:19:00,41.4,21.5,29.79,NW,315,32.0,37.1,45,0.00,,,0.00,WUHU216HW,2013-02-13 21:19:00,
2013-02-13 14:21:00,41.4,21.5,29.79,NW,315,31.5,37.1,45,0.00,,,0.00,WUHU216HW,2013-02-13 21:21:00,
2013-02-13 14:22:00,41.4,21.5,29.79,NNW,338,23.0,37.1,45,0.00,,,0.00,WUHU216HW,2013-02-13 21:22:00,
2013-02-13 14:24:00,41.4,22.1,29.79,NW,315,36.9,36.9,46,0.00,,,0.00,WUHU216HW,2013-02-13 21:24:00,
2013-02-13 14:26:00,41.4,21.5,29.79,NW,315,25.5,36.9,45,0.00,,,0.00,WUHU216HW,2013-02-13 21:26:00,
2013-02-13 14:27:00,41.4,22.1,29.78,NNW,338,28.9,36.9,46,0.00,,,0.00,WUHU216HW,2013-02-13 21:27:00,
2013-02-13 14:30:00,41.4,23.0,29.79,NW,315,19.0,36.9,48,0.00,,,0.00,WUHU216HW,2013-02-13 21:30:00,
2013-02-13 14:31:00,41.4,23.6,29.79,NW,315,15.7,36.9,49,0.00,,,0.00,WUHU216HW,2013-02-13 21:31:00,
2013-02-13 14:32:00,41.2,24.4,29.79,NNW,338,18.1,36.9,51,0.00,,,0.00,WUHU216HW,2013-02-13 21:32:00,
2013-02-13 14:35:00,41.0,24.7,29.79,NNW,338,16.8,28.9,52,0.00,,,0.00,WUHU216HW,2013-02-13 21:35:00,
2013-02-13 14:36:00,41.0,24.2,29.79,NNW,338,15.7,28.9,51,0.00,,,0.00,WUHU216HW,2013-02-13 21:36:00,
2013-02-13 14:37:00,41.2,22.9,29.79,WNW,293,17.7,22.4,48,0.00,,,0.00,WUHU216HW,2013-02-13 21:37:00,
2013-02-13 14:40:00,41.6,22.7,29.79,NW,315,19.2,23.5,47,0.00,,,0.00,WUHU216HW,2013-02-13 21:40:00,
2013-02-13 14:41:00,41.6,23.2,29.79,NNW,338,20.4,23.5,48,0.00,,,0.00,WUHU216HW,2013-02-13 21:41:00,
2013-02-13 14:42:00,41.6,24.3,29.79,NNW,338,17.4,23.5,50,0.00,,,0.00,WUHU216HW,2013-02-13 21:42:00,
2013-02-13 14:46:00,41.0,24.7,29.79,NNW,338,26.2,26.2,52,0.00,,,0.00,WUHU216HW,2013-02-13 21:46:00,
2013-02-13 14:47:00,40.9,23.0,29.79,NNW,338,19.9,26.2,49,0.00,,,0.00,WUHU216HW,2013-02-13 21:47:00,
2013-02-13 14:51:00,40.3,24.5,29.79,NNW,338,19.9,26.2,53,0.00,,,0.00,WUHU216HW,2013-02-13 21:51:00,
2013-02-13 14:52:00,40.1,23.4,29.79,NW,315,16.6,26.2,51,0.00,,,0.00,WUHU216HW,2013-02-13 21:52:00,
2013-02-13 14:53:00,40.1,23.4,29.79,NNW,338,16.3,26.2,51,0.00,,,0.00,WUHU216HW,2013-02-13 21:53:00,
2013-02-13 14:56:00,40.0,22.2,29.79,NNW,338,24.4,26.8,49,0.00,,,0.00,WUHU216HW,2013-02-13 21:56:00,
2013-02-13 14:57:00,40.0,22.8,29.79,NW,315,17.2,26.8,50,0.00,,,0.00,WUHU216HW,2013-02-13 21:57:00,
2013-02-13 14:58:00,40.0,22.8,29.79,NW,315,17.2,26.8,50,0.00,,,0.00,WUHU216HW,2013-02-13 21:58:00,
2013-02-13 15:01:00,39.6,24.2,29.79,NW,315,12.8,26.8,54,0.00,,,0.00,WUHU216HW,2013-02-13 22:01:00,
2013-02-13 15:02:00,39.4,23.6,29.79,NNW,338,17.0,26.8,53,0.00,,,0.00,WUHU216HW,2013-02-13 22:02:00,
2013-02-13 15:03:00,39.4,24.0,29.79,North,0,16.1,26.8,54,0.00,,,0.00,WUHU216HW,2013-02-13 22:03:00,
2013-02-13 15:06:00,39.1,24.6,29.79,NNW,338,12.5,24.4,56,0.00,,,0.00,WUHU216HW,2013-02-13 22:06:00,
2013-02-13 15:07:00,38.9,24.8,29.79,NNW,338,11.2,19.2,57,0.00,,,0.00,WUHU216HW,2013-02-13 22:07:00,
2013-02-13 15:08:00,38.9,25.3,29.79,NNW,338,11.4,19.2,58,0.00,,,0.00,WUHU216HW,2013-02-13 22:08:00,
2013-02-13 15:11:00,38.5,23.7,29.79,NNW,338,19.0,19.2,55,0.00,,,0.00,WUHU216HW,2013-02-13 22:11:00,
2013-02-13 15:12:00,38.5,25.4,29.79,NW,315,22.4,22.4,59,0.00,,,0.00,WUHU216HW,2013-02-13 22:12:00,
2013-02-13 15:13:00,38.5,24.9,29.79,NNW,338,18.6,22.4,58,0.00,,,0.00,WUHU216HW,2013-02-13 22:13:00,
2013-02-13 15:16:00,38.0,26.5,29.79,NNW,338,13.6,22.4,63,0.00,,,0.00,WUHU216HW,2013-02-13 22:16:00,
2013-02-13 15:17:00,38.0,26.5,29.79,NNW,338,13.0,22.4,63,0.00,,,0.00,WUHU216HW,2013-02-13 22:17:00,
2013-02-13 15:18:00,38.0,26.1,29.79,NNW,338,13.4,22.4,62,0.00,,,0.00,WUHU216HW,2013-02-13 22:18:00,
2013-02-13 15:21:00,38.2,25.8,29.79,NNW,338,12.1,22.4,61,0.00,,,0.00,WUHU216HW,2013-02-13 22:21:00,
2013-02-13 15:22:00,38.2,25.8,29.79,NNW,338,12.1,22.4,61,0.00,,,0.00,WUHU216HW,2013-02-13 22:22:00,
2013-02-13 15:23:00,38.0,26.5,29.80,NNW,338,17.2,19.9,63,0.00,,,0.00,WUHU216HW,2013-02-13 22:23:00,
2013-02-13 15:27:00,37.8,26.3,29.79,NNW,338,8.9,19.9,63,0.00,,,0.00,WUHU216HW,2013-02-13 22:27:00,
2013-02-13 15:28:00,37.6,26.1,29.80,NNW,338,14.8,19.9,63,0.00,,,0.00,WUHU216HW,2013-02-13 22:28:00,
2013-02-13 15:32:00,37.6,25.4,29.80,North,0,14.3,17.2,61,0.00,,,0.00,WUHU216HW,2013-02-13 22:32:00,
2013-02-13 15:33:00,37.6,24.6,29.79,NNW,338,17.0,17.9,59,0.00,,,0.00,WUHU216HW,2013-02-13 22:33:00,
2013-02-13 15:37:00,37.6,25.4,29.80,NNW,338,14.3,17.9,61,0.00,,,0.00,WUHU216HW,2013-02-13 22:37:00,
2013-02-13 15:38:00,37.6,25.0,29.80,NW,315,13.6,17.9,60,0.00,,,0.00,WUHU216HW,2013-02-13 22:38:00,
2013-02-13 15:39:00,37.6,23.7,29.80,NNW,338,12.8,17.9,57,0.00,,,0.00,WUHU216HW,2013-02-13 22:39:00,
2013-02-13 15:42:00,38.0,21.9,29.80,NW,315,14.8,17.9,52,0.00,,,0.00,WUHU216HW,2013-02-13 22:42:00,
2013-02-13 15:43:00,38.2,21.6,29.80,NNW,338,19.5,19.5,51,0.00,,,0.00,WUHU216HW,2013-02-13 22:43:00,
2013-02-13 15:44:00,38.5,22.0,29.80,NW,315,15.7,21.3,51,0.00,,,0.00,WUHU216HW,2013-02-13 22:44:00,
2013-02-13 15:47:00,38.7,22.1,29.80,NNW,338,15.7,21.3,51,0.00,,,0.00,WUHU216HW,2013-02-13 22:47:00,
2013-02-13 15:48:00,38.7,22.5,29.80,NNW,338,9.4,21.3,52,0.00,,,0.00,WUHU216HW,2013-02-13 22:48:00,
2013-02-13 15:49:00,38.7,22.5,29.80,NNW,338,15.2,21.3,52,0.00,,,0.00,WUHU216HW,2013-02-13 22:49:00,
2013-02-13 15:52:00,38.9,23.6,29.80,NNW,338,12.3,21.3,54,0.00,,,0.00,WUHU216HW,2013-02-13 22:52:00,
2013-02-13 15:53:00,38.5,25.8,29.80,NNW,338,12.8,18.8,60,0.00,,,0.00,WUHU216HW,2013-02-13 22:53:00,
2013-02-13 15:54:00,38.0,25.8,29.80,North,0,12.5,16.3,61,0.00,,,0.00,WUHU216HW,2013-02-13 22:54:00,
2013-02-13 15:57:00,37.4,25.6,29.80,NNW,338,13.4,16.8,62,0.00,,,0.00,WUHU216HW,2013-02-13 22:57:00,
2013-02-13 15:58:00,37.1,24.5,29.80,NNW,338,14.5,16.8,60,0.00,,,0.00,WUHU216HW,2013-02-13 22:58:00,
2013-02-13 15:59:00,37.3,23.9,29.80,NNW,338,18.1,18.1,58,0.00,,,0.00,WUHU216HW,2013-02-13 22:59:00,
2013-02-13 16:02:00,37.8,23.1,29.80,NW,315,15.0,18.1,55,0.00,,,0.00,WUHU216HW,2013-02-13 23:02:00,
2013-02-13 16:03:00,38.3,22.6,29.80,NNW,338,22.6,22.6,53,0.00,,,0.00,WUHU216HW,2013-02-13 23:03:00,
2013-02-13 16:04:00,38.5,22.8,29.80,NW,315,16.3,23.3,53,0.00,,,0.00,WUHU216HW,2013-02-13 23:04:00,
2013-02-13 16:07:00,38.7,23.0,29.80,NW,315,15.0,23.3,53,0.00,,,0.00,WUHU216HW,2013-02-13 23:07:00,
2013-02-13 16:08:00,38.9,23.1,29.80,NW,315,16.3,23.3,53,0.00,,,0.00,WUHU216HW,2013-02-13 23:08:00,
2013-02-13 16:10:00,38.9,22.7,29.80,WNW,293,14.8,23.3,52,0.00,,,0.00,WUHU216HW,2013-02-13 23:10:00,
2013-02-13 16:12:00,38.9,22.7,29.80,NW,315,17.2,23.3,52,0.00,,,0.00,WUHU216HW,2013-02-13 23:12:00,
2013-02-13 16:13:00,38.9,22.7,29.80,NW,315,14.3,23.3,52,0.00,,,0.00,WUHU216HW,2013-02-13 23:13:00,
2013-02-13 16:15:00,38.9,23.1,29.80,NW,315,11.0,21.5,53,0.00,,,0.00,WUHU216HW,2013-02-13 23:15:00,
2013-02-13 16:18:00,38.9,22.7,29.80,NNW,338,13.2,18.6,52,0.00,,,0.00,WUHU216HW,2013-02-13 23:18:00,
2013-02-13 16:19:00,38.9,23.1,29.80,NW,315,10.3,18.6,53,0.00,,,0.00,WUHU216HW,2013-02-13 23:19:00,
2013-02-13 16:20:00,38.7,23.0,29.81,NNW,338,12.3,18.6,53,0.00,,,0.00,WUHU216HW,2013-02-13 23:20:00,
2013-02-13 16:23:00,38.7,22.5,29.80,NW,315,19.7,24.6,52,0.00,,,0.00,WUHU216HW,2013-02-13 23:23:00,
2013-02-13 16:24:00,38.7,23.0,29.80,NW,315,23.0,24.6,53,0.00,,,0.00,WUHU216HW,2013-02-13 23:24:00,
2013-02-13 16:25:00,38.7,23.0,29.80,NW,315,16.3,24.6,53,0.00,,,0.00,WUHU216HW,2013-02-13 23:25:00,
2013-02-13 16:28:00,38.7,22.5,29.80,NW,315,24.6,24.6,52,0.00,,,0.00,WUHU216HW,2013-02-13 23:28:00,
2013-02-13 16:29:00,38.7,22.5,29.80,NW,315,22.1,24.6,52,0.00,,,0.00,WUHU216HW,2013-02-13 23:29:00,
2013-02-13 16:30:00,38.7,23.0,29.81,NW,315,15.9,24.6,53,0.00,,,0.00,WUHU216HW,2013-02-13 23:30:00,
2013-02-13 16:33:00,38.5,22.3,29.81,NW,315,23.3,24.6,52,0.00,,,0.00,WUHU216HW,2013-02-13 23:33:00,
2013-02-13 16:34:00,38.5,22.8,29.81,NNW,338,18.8,24.6,53,0.00,,,0.00,WUHU216HW,2013-02-13 23:34:00,
2013-02-13 16:35:00,38.5,22.3,29.81,NW,315,24.8,24.8,52,0.00,,,0.00,WUHU216HW,2013-02-13 23:35:00,
2013-02-13 16:38:00,38.5,22.3,29.81,NW,315,24.8,27.7,52,0.00,,,0.00,WUHU216HW,2013-02-13 23:38:00,
2013-02-13 16:39:00,38.5,22.3,29.81,NNW,338,23.7,27.7,52,0.00,,,0.00,WUHU216HW,2013-02-13 23:39:00,
2013-02-13 16:41:00,38.5,22.8,29.81,NNW,338,22.4,27.7,53,0.00,,,0.00,WUHU216HW,2013-02-13 23:41:00,
2013-02-13 16:43:00,38.3,22.6,29.81,NW,315,20.8,27.7,53,0.00,,,0.00,WUHU216HW,2013-02-13 23:43:00,
2013-02-13 16:44:00,38.3,22.6,29.81,NNW,338,25.7,27.7,53,0.00,,,0.00,WUHU216HW,2013-02-13 23:44:00,
2013-02-13 16:46:00,38.3,23.0,29.81,NNW,338,18.1,27.7,54,0.00,,,0.00,WUHU216HW,2013-02-13 23:46:00,
2013-02-13 16:48:00,38.2,22.9,29.81,NW,315,17.9,25.7,54,0.00,,,0.00,WUHU216HW,2013-02-13 23:48:00,
2013-02-13 16:49:00,38.2,22.5,29.81,NNW,338,20.6,25.7,53,0.00,,,0.00,WUHU216HW,2013-02-13 23:49:00,
2013-02-13 16:51:00,38.2,22.5,29.81,NW,315,19.0,25.7,53,0.00,,,0.00,WUHU216HW,2013-02-13 23:51:00,
2013-02-13 16:53:00,38.2,22.1,29.81,NNW,338,18.1,25.7,52,0.00,,,0.00,WUHU216HW,2013-02-13 23:53:00,
2013-02-13 16:54:00,38.2,22.5,29.81,WNW,293,19.7,24.2,53,0.00,,,0.00,WUHU216HW,2013-02-13 23:54:00,
2013-02-13 16:56:00,38.2,22.5,29.81,NW,315,19.9,24.2,53,0.00,,,0.00,WUHU216HW,2013-02-13 23:56:00,
2013-02-13 16:58:00,38.2,22.5,29.81,NW,315,19.0,25.5,53,0.00,,,0.00,WUHU216HW,2013-02-13 23:58:00,
2013-02-13 16:59:00,38.2,22.1,29.81,NW,315,25.3,25.5,52,0.00,,,0.00,WUHU216HW,2013-02-13 23:59:00,
2013-02-13 17:01:00,38.2,22.5,29.81,NNW,338,19.0,25.7,53,0.00,,,0.00,WUHU216HW,2013-02-14 00:01:00,
2013-02-13 17:03:00,38.2,22.9,29.81,NW,315,20.6,25.7,54,0.00,,,0.00,WUHU216HW,2013-02-14 00:03:00,
2013-02-13 17:04:00,38.0,22.3,29.82,NW,315,19.2,25.7,53,0.00,,,0.00,WUHU216HW,2013-02-14 00:04:00,
2013-02-13 17:07:00,37.8,22.6,29.82,NNW,338,14.5,25.7,54,0.00,,,0.00,WUHU216HW,2013-02-14 00:07:00,
2013-02-13 17:09:00,37.8,22.6,29.82,NW,315,18.1,25.7,54,0.00,,,0.00,WUHU216HW,2013-02-14 00:09:00,
2013-02-13 17:10:00,37.8,23.1,29.82,NNW,338,20.1,25.1,55,0.00,,,0.00,WUHU216HW,2013-02-14 00:10:00,
2013-02-13 17:12:00,36.4,26.1,29.82,NNW,338,20.4,25.1,66,0.00,,,0.00,WUHU216HW,2013-02-14 00:12:00,
2013-02-13 17:14:00,35.6,26.5,29.82,NNW,338,19.7,25.1,69,0.00,,,0.00,WUHU216HW,2013-02-14 00:14:00,
2013-02-13 17:15:00,35.3,26.8,29.82,NNW,338,17.2,25.1,71,0.00,,,0.00,WUHU216HW,2013-02-14 00:15:00,
2013-02-13 17:17:00,34.7,26.9,29.82,North,0,14.8,23.3,73,0.00,,,0.00,WUHU216HW,2013-02-14 00:17:00,
2013-02-13 17:19:00,34.4,26.6,29.82,NNW,338,14.3,23.3,73,0.00,,,0.00,WUHU216HW,2013-02-14 00:19:00,
2013-02-13 17:20:00,34.2,26.4,29.82,NNW,338,16.3,23.3,73,0.00,,,0.00,WUHU216HW,2013-02-14 00:20:00,
2013-02-13 17:22:00,34.2,26.4,29.82,NNW,338,15.7,21.3,73,0.00,,,0.00,WUHU216HW,2013-02-14 00:22:00,
2013-02-13 17:24:00,34.2,26.4,29.82,NNW,338,12.5,20.1,73,0.00,,,0.00,WUHU216HW,2013-02-14 00:24:00,
2013-02-13 17:25:00,34.2,26.6,29.82,NNW,338,15.7,19.2,74,0.00,,,0.00,WUHU216HW,2013-02-14 00:25:00,
2013-02-13 17:27:00,34.0,26.8,29.82,NNW,338,13.0,19.2,75,0.00,,,0.00,WUHU216HW,2013-02-14 00:27:00,
2013-02-13 17:29:00,33.8,26.6,29.82,NNW,338,11.4,19.2,75,0.00,,,0.00,WUHU216HW,2013-02-14 00:29:00,
2013-02-13 17:30:00,33.8,27.0,29.82,NNW,338,10.5,19.2,76,0.00,,,0.00,WUHU216HW,2013-02-14 00:30:00,
2013-02-13 17:32:00,33.7,26.8,29.82,NNW,338,14.8,19.2,76,0.00,,,0.00,WUHU216HW,2013-02-14 00:32:00,
2013-02-13 17:35:00,33.7,26.8,29.82,North,0,8.5,16.8,76,0.00,,,0.00,WUHU216HW,2013-02-14 00:35:00,
2013-02-13 17:36:00,33.5,26.6,29.82,North,0,9.8,16.8,76,0.00,,,0.00,WUHU216HW,2013-02-14 00:36:00,
2013-02-13 17:38:00,33.5,26.6,29.82,NNW,338,16.1,16.1,76,0.00,,,0.00,WUHU216HW,2013-02-14 00:38:00,
2013-02-13 17:40:00,33.5,26.6,29.82,NNW,338,14.1,17.0,76,0.00,,,0.00,WUHU216HW,2013-02-14 00:40:00,
2013-02-13 17:41:00,33.5,26.6,29.83,NNW,338,16.1,17.0,76,0.00,,,0.00,WUHU216HW,2013-02-14 00:41:00,
2013-02-13 17:43:00,33.7,26.8,29.83,NNW,338,15.7,17.0,76,0.00,,,0.00,WUHU216HW,2013-02-14 00:43:00,
2013-02-13 17:45:00,33.7,26.8,29.83,North,0,12.1,17.9,76,0.00,,,0.00,WUHU216HW,2013-02-14 00:45:00,
2013-02-13 17:46:00,33.5,26.6,29.83,NNW,338,12.1,17.9,76,0.00,,,0.00,WUHU216HW,2013-02-14 00:46:00,
2013-02-13 17:48:00,33.5,26.6,29.83,NNW,338,13.4,17.9,76,0.00,,,0.00,WUHU216HW,2013-02-14 00:48:00,
2013-02-13 17:50:00,33.5,26.6,29.83,North,0,9.8,17.9,76,0.00,,,0.00,WUHU216HW,2013-02-14 00:50:00,
2013-02-13 17:51:00,33.5,26.6,29.83,North,0,9.8,17.9,76,0.00,,,0.00,WUHU216HW,2013-02-14 00:51:00,
2013-02-13 17:54:00,33.3,26.5,29.83,North,0,13.4,17.9,76,0.00,,,0.00,WUHU216HW,2013-02-14 00:54:00,
2013-02-13 17:55:00,33.5,26.6,29.83,NNW,338,13.4,17.9,76,0.00,,,0.00,WUHU216HW,2013-02-14 00:55:00,
2013-02-13 17:56:00,33.5,26.6,29.83,North,0,15.7,17.9,76,0.00,,,0.00,WUHU216HW,2013-02-14 00:56:00,
2013-02-13 17:59:00,33.5,26.3,29.83,North,0,14.5,17.9,75,0.00,,,0.00,WUHU216HW,2013-02-14 00:59:00,
2013-02-13 18:01:00,33.5,26.0,29.83,NNW,338,15.2,17.9,74,0.00,,,0.00,WUHU216HW,2013-02-14 01:01:00,
2013-02-13 18:04:00,33.8,25.4,29.83,NNW,338,15.7,16.8,71,0.00,,,0.00,WUHU216HW,2013-02-14 01:04:00,
2013-02-13 18:06:00,33.8,25.4,29.83,NNW,338,13.2,16.8,71,0.00,,,0.00,WUHU216HW,2013-02-14 01:06:00,
2013-02-13 18:09:00,34.0,24.8,29.83,NNW,338,15.2,16.6,69,0.00,,,0.00,WUHU216HW,2013-02-14 01:09:00,
2013-02-13 18:11:00,34.2,23.6,29.83,NW,315,15.4,18.1,65,0.00,,,0.00,WUHU216HW,2013-02-14 01:11:00,
2013-02-13 18:14:00,35.1,23.0,29.83,NW,315,17.9,18.1,61,0.00,,,0.00,WUHU216HW,2013-02-14 01:14:00,
2013-02-13 18:16:00,35.3,22.9,29.83,NW,315,17.9,18.1,60,0.00,,,0.00,WUHU216HW,2013-02-14 01:16:00,
2013-02-13 18:17:00,35.5,23.0,29.83,NW,315,11.4,18.1,60,0.00,,,0.00,WUHU216HW,2013-02-14 01:17:00,
2013-02-13 18:19:00,35.8,23.0,29.83,NNW,338,12.8,18.1,59,0.00,,,0.00,WUHU216HW,2013-02-14 01:19:00,
2013-02-13 18:21:00,35.8,23.0,29.83,NW,315,12.3,17.9,59,0.00,,,0.00,WUHU216HW,2013-02-14 01:21:00,
2013-02-13 18:22:00,35.8,23.0,29.83,NW,315,11.4,17.9,59,0.00,,,0.00,WUHU216HW,2013-02-14 01:22:00,
2013-02-13 18:25:00,36.0,22.7,29.83,WNW,293,15.9,21.3,58,0.00,,,0.00,WUHU216HW,2013-02-14 01:25:00,
2013-02-13 18:26:00,36.0,22.7,29.84,NW,315,17.2,21.3,58,0.00,,,0.00,WUHU216HW,2013-02-14 01:26:00,
2013-02-13 18:27:00,36.2,22.9,29.84,NW,315,13.9,21.3,58,0.00,,,0.00,WUHU216HW,2013-02-14 01:27:00,
2013-02-13 18:30:00,36.0,22.7,29.84,NNW,338,15.2,21.3,58,0.00,,,0.00,WUHU216HW,2013-02-14 01:30:00,
2013-02-13 18:31:00,36.0,22.7,29.84,NW,315,13.4,21.3,58,0.00,,,0.00,WUHU216HW,2013-02-14 01:31:00,
2013-02-13 18:32:00,36.0,22.7,29.84,NW,315,13.4,21.3,58,0.00,,,0.00,WUHU216HW,2013-02-14 01:32:00,
2013-02-13 18:35:00,36.2,22.4,29.84,NNW,338,14.3,22.1,57,0.00,,,0.00,WUHU216HW,2013-02-14 01:35:00,
2013-02-13 18:36:00,36.4,22.6,29.84,NW,315,13.9,22.1,57,0.00,,,0.00,WUHU216HW,2013-02-14 01:36:00,
2013-02-13 18:37:00,36.4,22.1,29.84,NW,315,21.5,22.1,56,0.00,,,0.00,WUHU216HW,2013-02-14 01:37:00,
2013-02-13 18:40:00,36.4,22.6,29.84,NW,315,15.7,22.1,57,0.00,,,0.00,WUHU216HW,2013-02-14 01:40:00,
2013-02-13 18:41:00,36.4,22.6,29.84,North,0,16.6,22.1,57,0.00,,,0.00,WUHU216HW,2013-02-14 01:41:00,
2013-02-13 18:42:00,36.4,22.6,29.84,WNW,293,14.8,22.1,57,0.00,,,0.00,WUHU216HW,2013-02-14 01:42:00,
2013-02-13 18:45:00,36.2,22.4,29.84,NNW,338,15.9,21.5,57,0.00,,,0.00,WUHU216HW,2013-02-14 01:45:00,
2013-02-13 18:46:00,36.2,22.4,29.84,NNW,338,12.1,21.5,57,0.00,,,0.00,WUHU216HW,2013-02-14 01:46:00,
2013-02-13 18:47:00,36.0,22.7,29.84,NNW,338,15.7,19.9,58,0.00,,,0.00,WUHU216HW,2013-02-14 01:47:00,
2013-02-13 18:50:00,36.0,22.7,29.84,NW,315,15.4,18.8,58,0.00,,,0.00,WUHU216HW,2013-02-14 01:50:00,
2013-02-13 18:51:00,36.0,22.2,29.84,NNW,338,12.1,18.8,57,0.00,,,0.00,WUHU216HW,2013-02-14 01:51:00,
2013-02-13 18:52:00,36.0,22.7,29.84,NNW,338,15.4,18.8,58,0.00,,,0.00,WUHU216HW,2013-02-14 01:52:00,
2013-02-13 18:56:00,36.0,22.2,29.85,NNW,338,13.2,18.8,57,0.00,,,0.00,WUHU216HW,2013-02-14 01:56:00,
2013-02-13 18:57:00,36.0,22.7,29.85,NNW,338,11.9,18.8,58,0.00,,,0.00,WUHU216HW,2013-02-14 01:57:00,
2013-02-13 19:01:00,35.1,25.6,29.85,North,0,7.8,15.9,68,0.00,,,0.00,WUHU216HW,2013-02-14 02:01:00,
2013-02-13 19:02:00,34.4,25.9,29.85,North,0,6.0,15.9,71,0.00,,,0.00,WUHU216HW,2013-02-14 02:02:00,
2013-02-13 19:06:00,33.3,25.8,29.85,NNW,338,8.1,13.2,74,0.00,,,0.00,WUHU216HW,2013-02-14 02:06:00,
2013-02-13 19:07:00,32.9,25.8,29.85,North,0,8.1,12.8,75,0.00,,,0.00,WUHU216HW,2013-02-14 02:07:00,
2013-02-13 19:11:00,32.6,25.8,29.85,NNW,338,6.3,12.8,76,0.00,,,0.00,WUHU216HW,2013-02-14 02:11:00,
2013-02-13 19:12:00,32.6,25.8,29.85,North,0,5.6,12.8,76,0.00,,,0.00,WUHU216HW,2013-02-14 02:12:00,
2013-02-13 19:16:00,32.6,26.2,29.85,North,0,7.6,9.8,77,0.00,,,0.00,WUHU216HW,2013-02-14 02:16:00,
2013-02-13 19:17:00,32.6,26.2,29.85,NNW,338,7.6,8.5,77,0.00,,,0.00,WUHU216HW,2013-02-14 02:17:00,
2013-02-13 19:21:00,32.4,26.3,29.86,North,0,5.6,8.5,78,0.00,,,0.00,WUHU216HW,2013-02-14 02:21:00,
2013-02-13 19:22:00,32.2,26.2,29.86,North,0,7.2,8.5,78,0.00,,,0.00,WUHU216HW,2013-02-14 02:22:00,
2013-02-13 19:23:00,32.2,26.2,29.86,NNW,338,6.3,8.5,78,0.00,,,0.00,WUHU216HW,2013-02-14 02:23:00,
2013-02-13 19:26:00,32.0,26.0,29.86,NNW,338,8.3,8.5,78,0.00,,,0.00,WUHU216HW,2013-02-14 02:26:00,
2013-02-13 19:27:00,32.2,26.2,29.86,NNW,338,8.9,8.9,78,0.00,,,0.00,WUHU216HW,2013-02-14 02:27:00,
2013-02-13 19:28:00,32.0,26.0,29.86,North,0,6.9,9.2,78,0.00,,,0.00,WUHU216HW,2013-02-14 02:28:00,
2013-02-13 19:31:00,32.4,26.0,29.86,NNW,338,6.3,17.2,77,0.00,,,0.00,WUHU216HW,2013-02-14 02:31:00,
2013-02-13 19:32:00,32.4,26.0,29.86,North,0,8.5,17.2,77,0.00,,,0.00,WUHU216HW,2013-02-14 02:32:00,
2013-02-13 19:33:00,32.2,25.8,29.86,NNW,338,7.2,17.2,77,0.00,,,0.00,WUHU216HW,2013-02-14 02:33:00,
2013-02-13 19:34:00,32.2,25.8,29.86,NNW,338,10.5,17.2,77,0.00,,,0.00,WUHU216HW,2013-02-14 02:34:00,
2013-02-13 19:37:00,32.2,25.2,29.86,NNW,338,16.8,17.2,75,0.00,,,0.00,WUHU216HW,2013-02-14 02:37:00,
2013-02-13 19:38:00,32.4,24.4,29.86,NNW,338,13.9,17.2,72,0.00,,,0.00,WUHU216HW,2013-02-14 02:38:00,
2013-02-13 19:39:00,32.8,25.0,29.86,NNW,338,11.9,18.3,73,0.00,,,0.00,WUHU216HW,2013-02-14 02:39:00,
2013-02-13 19:42:00,33.1,23.3,29.86,North,0,11.6,18.3,67,0.00,,,0.00,WUHU216HW,2013-02-14 02:42:00,
2013-02-13 19:43:00,33.3,24.8,29.86,NNW,338,9.2,18.3,71,0.00,,,0.00,WUHU216HW,2013-02-14 02:43:00,
2013-02-13 19:44:00,33.1,25.7,29.87,North,0,6.3,18.3,74,0.00,,,0.00,WUHU216HW,2013-02-14 02:44:00,
2013-02-13 19:47:00,32.8,25.7,29.87,NNW,338,5.4,18.3,75,0.00,,,0.00,WUHU216HW,2013-02-14 02:47:00,
2013-02-13 19:48:00,32.6,25.8,29.86,NNW,338,7.6,18.3,76,0.00,,,0.00,WUHU216HW,2013-02-14 02:48:00,
2013-02-13 19:49:00,32.4,25.7,29.87,NNW,338,5.6,15.2,76,0.00,,,0.00,WUHU216HW,2013-02-14 02:49:00,
2013-02-13 19:52:00,32.2,25.5,29.87,NNW,338,8.5,12.3,76,0.00,,,0.00,WUHU216HW,2013-02-14 02:52:00,
2013-02-13 19:53:00,32.2,25.8,29.87,NW,315,7.8,12.3,77,0.00,,,0.00,WUHU216HW,2013-02-14 02:53:00,
2013-02-13 19:54:00,32.0,25.7,29.87,NNW,338,6.9,12.3,77,0.00,,,0.00,WUHU216HW,2013-02-14 02:54:00,
2013-02-13 19:57:00,32.0,25.7,29.87,NNW,338,8.5,10.3,77,0.00,,,0.00,WUHU216HW,2013-02-14 02:57:00,
2013-02-13 19:58:00,31.9,25.5,29.87,NW,315,10.7,10.7,77,0.00,,,0.00,WUHU216HW,2013-02-14 02:58:00,
2013-02-13 19:59:00,32.0,25.7,29.87,North,0,7.8,10.7,77,0.00,,,0.00,WUHU216HW,2013-02-14 02:59:00,
2013-02-13 20:02:00,32.0,25.4,29.87,NNW,338,7.6,11.6,76,0.00,,,0.00,WUHU216HW,2013-02-14 03:02:00,
2013-02-13 20:03:00,32.0,25.0,29.86,NNW,338,9.2,11.6,75,0.00,,,0.00,WUHU216HW,2013-02-14 03:03:00,
2013-02-13 20:04:00,32.0,23.4,29.86,NW,315,17.0,17.0,70,0.00,,,0.00,WUHU216HW,2013-02-14 03:04:00,
2013-02-13 20:07:00,33.8,22.1,29.86,WNW,293,17.7,23.9,62,0.00,,,0.00,WUHU216HW,2013-02-14 03:07:00,
2013-02-13 20:08:00,34.2,22.1,29.86,NW,315,14.3,23.9,61,0.00,,,0.00,WUHU216HW,2013-02-14 03:08:00,
2013-02-13 20:09:00,34.4,22.3,29.86,NW,315,16.3,23.9,61,0.00,,,0.00,WUHU216HW,2013-02-14 03:09:00,
2013-02-13 20:12:00,34.9,22.1,29.86,NW,315,21.5,23.9,59,0.00,,,0.00,WUHU216HW,2013-02-14 03:12:00,
2013-02-13 20:13:00,35.1,21.8,29.86,WNW,293,22.4,23.9,58,0.00,,,0.00,WUHU216HW,2013-02-14 03:13:00,
2013-02-13 20:14:00,35.3,21.6,29.86,NW,315,20.4,23.9,57,0.00,,,0.00,WUHU216HW,2013-02-14 03:14:00,
2013-02-13 20:17:00,35.6,21.5,29.86,WNW,293,21.7,23.5,56,0.00,,,0.00,WUHU216HW,2013-02-14 03:17:00,
2013-02-13 20:18:00,35.6,21.5,29.86,NW,315,22.4,23.5,56,0.00,,,0.00,WUHU216HW,2013-02-14 03:18:00,
2013-02-13 20:19:00,35.6,21.1,29.86,NNW,338,25.1,25.1,55,0.00,,,0.00,WUHU216HW,2013-02-14 03:19:00,
2013-02-13 20:22:00,35.8,21.3,29.86,NW,315,19.2,27.5,55,0.00,,,0.00,WUHU216HW,2013-02-14 03:22:00,
2013-02-13 20:23:00,35.8,21.3,29.86,NW,315,17.7,27.5,55,0.00,,,0.00,WUHU216HW,2013-02-14 03:23:00,
2013-02-13 20:24:00,35.6,21.5,29.86,NW,315,13.2,27.5,56,0.00,,,0.00,WUHU216HW,2013-02-14 03:24:00,
2013-02-13 20:28:00,35.6,21.5,29.86,NW,315,13.2,27.5,56,0.00,,,0.00,WUHU216HW,2013-02-14 03:28:00,
2013-02-13 20:29:00,35.6,21.5,29.86,WNW,293,24.4,24.4,56,0.00,,,0.00,WUHU216HW,2013-02-14 03:29:00,
2013-02-13 20:30:00,35.5,20.9,29.86,WNW,293,24.4,24.4,55,0.00,,,0.00,WUHU216HW,2013-02-14 03:30:00,
2013-02-13 20:33:00,35.6,21.1,29.86,NW,315,15.7,25.5,55,0.00,,,0.00,WUHU216HW,2013-02-14 03:33:00,
2013-02-13 20:34:00,35.6,21.5,29.86,NW,315,14.1,25.5,56,0.00,,,0.00,WUHU216HW,2013-02-14 03:34:00,
2013-02-13 20:35:00,35.6,21.5,29.86,NW,315,19.2,25.5,56,0.00,,,0.00,WUHU216HW,2013-02-14 03:35:00,
2013-02-13 20:38:00,35.6,21.5,29.86,NW,315,20.1,25.5,56,0.00,,,0.00,WUHU216HW,2013-02-14 03:38:00,
2013-02-13 20:40:00,35.6,21.5,29.86,NW,315,16.6,25.5,56,0.00,,,0.00,WUHU216HW,2013-02-14 03:40:00,
2013-02-13 20:43:00,35.6,21.5,29.86,NW,315,20.8,23.0,56,0.00,,,0.00,WUHU216HW,2013-02-14 03:43:00,
2013-02-13 20:45:00,35.6,21.5,29.86,WNW,293,18.8,23.0,56,0.00,,,0.00,WUHU216HW,2013-02-14 03:45:00,
2013-02-13 20:48:00,35.6,21.1,29.86,NW,315,20.1,23.0,55,0.00,,,0.00,WUHU216HW,2013-02-14 03:48:00,
2013-02-13 20:49:00,35.6,21.1,29.86,NW,315,17.7,23.0,55,0.00,,,0.00,WUHU216HW,2013-02-14 03:49:00,
2013-02-13 20:50:00,35.6,21.5,29.86,NW,315,12.8,23.0,56,0.00,,,0.00,WUHU216HW,2013-02-14 03:50:00,
2013-02-13 20:53:00,35.5,21.8,29.86,NW,315,17.0,22.4,57,0.00,,,0.00,WUHU216HW,2013-02-14 03:53:00,
2013-02-13 20:54:00,35.5,21.8,29.86,NW,315,23.3,23.3,57,0.00,,,0.00,WUHU216HW,2013-02-14 03:54:00,
2013-02-13 20:55:00,35.5,21.3,29.86,WNW,293,18.1,23.3,56,0.00,,,0.00,WUHU216HW,2013-02-14 03:55:00,
2013-02-13 20:59:00,35.6,21.5,29.86,NNW,338,19.5,23.3,56,0.00,,,0.00,WUHU216HW,2013-02-14 03:59:00,
2013-02-13 21:00:00,35.6,21.5,29.86,WNW,293,19.7,23.3,56,0.00,,,0.00,WUHU216HW,2013-02-14 04:00:00,
2013-02-13 21:04:00,35.6,21.5,29.86,NW,315,20.1,23.3,56,0.00,,,0.00,WUHU216HW,2013-02-14 04:04:00,
2013-02-13 21:05:00,35.6,21.5,29.86,WNW,293,22.1,22.1,56,0.00,,,0.00,WUHU216HW,2013-02-14 04:05:00,
2013-02-13 21:09:00,35.6,21.5,29.86,NW,315,21.3,22.6,56,0.00,,,0.00,WUHU216HW,2013-02-14 04:09:00,
2013-02-13 21:10:00,35.6,21.5,29.86,NW,315,22.4,23.7,56,0.00,,,0.00,WUHU216HW,2013-02-14 04:10:00,
2013-02-13 21:14:00,35.6,21.5,29.86,WNW,293,15.9,23.7,56,0.00,,,0.00,WUHU216HW,2013-02-14 04:14:00,
2013-02-13 21:15:00,35.6,21.5,29.86,NNW,338,21.5,23.7,56,0.00,,,0.00,WUHU216HW,2013-02-14 04:15:00,
2013-02-13 21:19:00,35.6,21.5,29.86,NW,315,17.0,23.7,56,0.00,,,0.00,WUHU216HW,2013-02-14 04:19:00,
2013-02-13 21:20:00,35.6,21.5,29.86,NW,315,25.7,25.7,56,0.00,,,0.00,WUHU216HW,2013-02-14 04:20:00,
2013-02-13 21:24:00,35.5,21.8,29.86,WNW,293,20.1,25.7,57,0.00,,,0.00,WUHU216HW,2013-02-14 04:24:00,
2013-02-13 21:25:00,35.5,21.8,29.86,NW,315,17.9,25.7,57,0.00,,,0.00,WUHU216HW,2013-02-14 04:25:00,
2013-02-13 21:29:00,35.6,22.0,29.86,WNW,293,23.3,27.3,57,0.00,,,0.00,WUHU216HW,2013-02-14 04:29:00,
2013-02-13 21:30:00,35.6,22.0,29.86,NW,315,22.6,27.3,57,0.00,,,0.00,WUHU216HW,2013-02-14 04:30:00,
2013-02-13 21:31:00,35.6,22.0,29.86,WNW,293,25.9,27.3,57,0.00,,,0.00,WUHU216HW,2013-02-14 04:31:00,
2013-02-13 21:34:00,35.6,21.5,29.86,NW,315,22.1,27.5,56,0.00,,,0.00,WUHU216HW,2013-02-14 04:34:00,
2013-02-13 21:36:00,35.6,21.5,29.86,NW,315,23.0,27.5,56,0.00,,,0.00,WUHU216HW,2013-02-14 04:36:00,
2013-02-13 21:39:00,35.6,21.5,29.86,NW,315,21.5,27.5,56,0.00,,,0.00,WUHU216HW,2013-02-14 04:39:00,
2013-02-13 21:41:00,35.6,21.5,29.86,NW,315,28.0,28.0,56,0.00,,,0.00,WUHU216HW,2013-02-14 04:41:00,
2013-02-13 21:44:00,35.6,21.5,29.86,WNW,293,24.4,28.4,56,0.00,,,0.00,WUHU216HW,2013-02-14 04:44:00,
2013-02-13 21:46:00,35.6,22.0,29.87,NW,315,24.2,28.4,57,0.00,,,0.00,WUHU216HW,2013-02-14 04:46:00,
2013-02-13 21:49:00,35.5,21.8,29.87,WNW,293,19.0,28.4,57,0.00,,,0.00,WUHU216HW,2013-02-14 04:49:00,
2013-02-13 21:50:00,35.5,21.8,29.87,NW,315,15.2,28.4,57,0.00,,,0.00,WUHU216HW,2013-02-14 04:50:00,
2013-02-13 21:51:00,35.5,21.8,29.86,NW,315,19.7,28.4,57,0.00,,,0.00,WUHU216HW,2013-02-14 04:51:00,
2013-02-13 21:54:00,35.5,21.8,29.87,NW,315,20.8,27.3,57,0.00,,,0.00,WUHU216HW,2013-02-14 04:54:00,
2013-02-13 21:55:00,35.5,21.8,29.87,NW,315,24.8,27.3,57,0.00,,,0.00,WUHU216HW,2013-02-14 04:55:00,
2013-02-13 21:56:00,35.5,22.1,29.87,WNW,293,17.2,27.3,58,0.00,,,0.00,WUHU216HW,2013-02-14 04:56:00,
2013-02-13 21:57:00,35.3,22.0,29.87,NW,315,17.9,27.3,58,0.00,,,0.00,WUHU216HW,2013-02-14 04:57:00,
2013-02-13 22:00:00,35.3,22.0,29.87,NW,315,20.1,27.3,58,0.00,,,0.00,WUHU216HW,2013-02-14 05:00:00,
2013-02-13 22:05:00,35.3,22.0,29.87,NW,315,21.9,25.1,58,0.00,,,0.00,WUHU216HW,2013-02-14 05:05:00,
2013-02-13 22:10:00,35.3,22.0,29.87,NW,315,19.5,26.2,58,0.00,,,0.00,WUHU216HW,2013-02-14 05:10:00,
2013-02-13 22:15:00,35.5,22.1,29.87,NW,315,16.1,26.6,58,0.00,,,0.00,WUHU216HW,2013-02-14 05:15:00,
2013-02-13 22:20:00,35.3,22.0,29.87,NW,315,21.9,26.6,58,0.00,,,0.00,WUHU216HW,2013-02-14 05:20:00,
2013-02-13 22:25:00,35.3,22.4,29.88,NNW,338,22.6,25.9,59,0.00,,,0.00,WUHU216HW,2013-02-14 05:25:00,
2013-02-13 22:30:00,35.3,22.4,29.88,WNW,293,18.6,22.6,59,0.00,,,0.00,WUHU216HW,2013-02-14 05:30:00,
2013-02-13 22:31:00,35.1,22.2,29.88,NNW,338,20.1,22.6,59,0.00,,,0.00,WUHU216HW,2013-02-14 05:31:00,
2013-02-13 22:35:00,35.1,22.7,29.88,NW,315,16.8,22.6,60,0.00,,,0.00,WUHU216HW,2013-02-14 05:35:00,
2013-02-13 22:36:00,35.1,22.7,29.88,NW,315,19.0,21.9,60,0.00,,,0.00,WUHU216HW,2013-02-14 05:36:00,
2013-02-13 22:40:00,34.9,22.5,29.88,NNW,338,17.9,21.5,60,0.00,,,0.00,WUHU216HW,2013-02-14 05:40:00,
2013-02-13 22:41:00,34.9,22.5,29.88,NW,315,18.3,20.8,60,0.00,,,0.00,WUHU216HW,2013-02-14 05:41:00,
2013-02-13 22:45:00,34.9,21.6,29.88,NW,315,25.3,25.3,58,0.00,,,0.00,WUHU216HW,2013-02-14 05:45:00,
2013-02-13 22:46:00,34.9,22.1,29.88,NW,315,20.4,25.3,59,0.00,,,0.00,WUHU216HW,2013-02-14 05:46:00,
2013-02-13 22:50:00,34.9,22.1,29.88,NW,315,17.7,25.3,59,0.00,,,0.00,WUHU216HW,2013-02-14 05:50:00,
2013-02-13 22:51:00,34.9,22.1,29.88,NW,315,17.2,25.3,59,0.00,,,0.00,WUHU216HW,2013-02-14 05:51:00,
2013-02-13 22:55:00,34.9,21.6,29.87,NNW,338,23.0,29.1,58,0.00,,,0.00,WUHU216HW,2013-02-14 05:55:00,
2013-02-13 22:56:00,34.9,21.6,29.87,NW,315,25.9,29.1,58,0.00,,,0.00,WUHU216HW,2013-02-14 05:56:00,
2013-02-13 23:00:00,34.9,21.6,29.87,NW,315,24.4,29.1,58,0.00,,,0.00,WUHU216HW,2013-02-14 06:00:00,
2013-02-13 23:01:00,34.9,21.6,29.87,NW,315,21.9,29.1,58,0.00,,,0.00,WUHU216HW,2013-02-14 06:01:00,
2013-02-13 23:05:00,34.7,21.9,29.87,WNW,293,15.7,26.8,59,0.00,,,0.00,WUHU216HW,2013-02-14 06:05:00,
2013-02-13 23:06:00,34.7,21.9,29.87,WNW,293,14.8,26.8,59,0.00,,,0.00,WUHU216HW,2013-02-14 06:06:00,
2013-02-13 23:11:00,34.7,21.4,29.88,NW,315,18.6,25.5,58,0.00,,,0.00,WUHU216HW,2013-02-14 06:11:00,
2013-02-13 23:16:00,34.6,21.2,29.88,NW,315,23.7,25.5,58,0.00,,,0.00,WUHU216HW,2013-02-14 06:16:00,
2013-02-13 23:21:00,34.4,21.1,29.88,NW,315,17.7,23.7,58,0.00,,,0.00,WUHU216HW,2013-02-14 06:21:00,
2013-02-13 23:22:00,34.4,21.1,29.88,NW,315,16.6,23.7,58,0.00,,,0.00,WUHU216HW,2013-02-14 06:22:00,
2013-02-13 23:26:00,34.2,21.3,29.88,WNW,293,16.6,22.8,59,0.00,,,0.00,WUHU216HW,2013-02-14 06:26:00,
2013-02-13 23:27:00,34.2,21.3,29.88,WNW,293,17.0,22.4,59,0.00,,,0.00,WUHU216HW,2013-02-14 06:27:00,
2013-02-13 23:31:00,34.0,21.2,29.88,West,270,11.6,21.9,59,0.00,,,0.00,WUHU216HW,2013-02-14 06:31:00,
2013-02-13 23:32:00,34.0,21.2,29.88,NNW,338,15.9,21.9,59,0.00,,,0.00,WUHU216HW,2013-02-14 06:32:00,
2013-02-13 23:36:00,34.0,21.2,29.88,NW,315,15.0,21.9,59,0.00,,,0.00,WUHU216HW,2013-02-14 06:36:00,
2013-02-13 23:37:00,34.0,21.2,29.88,NW,315,20.4,21.9,59,0.00,,,0.00,WUHU216HW,2013-02-14 06:37:00,
2013-02-13 23:41:00,34.0,21.2,29.88,WNW,293,21.3,25.3,59,0.00,,,0.00,WUHU216HW,2013-02-14 06:41:00,
2013-02-13 23:42:00,34.0,21.2,29.88,NW,315,19.0,25.3,59,0.00,,,0.00,WUHU216HW,2013-02-14 06:42:00,
2013-02-13 23:46:00,34.0,21.2,29.88,NW,315,15.7,27.7,59,0.00,,,0.00,WUHU216HW,2013-02-14 06:46:00,
2013-02-13 23:47:00,34.0,21.2,29.89,NW,315,18.8,27.7,59,0.00,,,0.00,WUHU216HW,2013-02-14 06:47:00,
2013-02-13 23:52:00,33.8,21.0,29.89,NW,315,20.1,27.7,59,0.00,,,0.00,WUHU216HW,2013-02-14 06:52:00,
2013-02-13 23:53:00,33.8,21.0,29.89,NNW,338,15.4,22.8,59,0.00,,,0.00,WUHU216HW,2013-02-14 06:53:00,
2013-02-13 23:57:00,33.8,21.4,29.90,NW,315,16.1,23.5,60,0.00,,,0.00,WUHU216HW,2013-02-14 06:57:00,
2013-02-13 23:58:00,33.8,21.0,29.90,NW,315,17.2,23.5,59,0.00,,,0.00,WUHU216HW,2013-02-14 06:58:00,